<?xml version="1.0" encoding="utf-8"?>
<gpx xmlns:xsi="http://www.w3.org/2001/XMLSchema-instance" xmlns:xsd="http://www.w3.org/2001/XMLSchema" version="1.1" creator="Shapelink.com" xmlns="http://www.topografix.com/GPX/1/1" xmlns:gpxtpx="http://www.garmin.com/xmlschemas/TrackPointExtension/v1">
  <metadata>
    <name>Löpning 12.01 km, 2018-07-25</name>
    <desc></desc>
    <author><name>Stefan Östlund</name></author> 
    <time>2018-07-25T08:41:57Z</time>
  </metadata>
  <trk>
    <name>Löpning 12.01 km, 2018-07-25</name>
    <trkseg>
      <trkpt lat="63.854970379621" lon="20.326474878677">
        <ele>59.2</ele>
        <time>2018-07-25T08:41:57Z</time>
      </trkpt>
      <trkpt lat="63.854980270263" lon="20.326505724069">
        <ele>60</ele>
        <time>2018-07-25T08:41:58Z</time>
      </trkpt>
      <trkpt lat="63.855034752613" lon="20.326636733166">
        <ele>58.8</ele>
        <time>2018-07-25T08:42:01Z</time>
      </trkpt>
      <trkpt lat="63.855084541099" lon="20.326941079955">
        <ele>58.8</ele>
        <time>2018-07-25T08:42:07Z</time>
      </trkpt>
      <trkpt lat="63.855067777299" lon="20.327274092842">
        <ele>58.4</ele>
        <time>2018-07-25T08:42:13Z</time>
      </trkpt>
      <trkpt lat="63.855058808666" lon="20.327609452661">
        <ele>58.4</ele>
        <time>2018-07-25T08:42:19Z</time>
      </trkpt>
      <trkpt lat="63.855044643255" lon="20.327938190779">
        <ele>58.6</ele>
        <time>2018-07-25T08:42:25Z</time>
      </trkpt>
      <trkpt lat="63.855017485899" lon="20.3282448845">
        <ele>58.4</ele>
        <time>2018-07-25T08:42:31Z</time>
      </trkpt>
      <trkpt lat="63.855008014352" lon="20.328550320936">
        <ele>57.8</ele>
        <time>2018-07-25T08:42:37Z</time>
      </trkpt>
      <trkpt lat="63.855024778152" lon="20.328835976088">
        <ele>58.8</ele>
        <time>2018-07-25T08:42:43Z</time>
      </trkpt>
      <trkpt lat="63.855012540578" lon="20.32887101243">
        <ele>58.8</ele>
        <time>2018-07-25T08:42:44Z</time>
      </trkpt>
      <trkpt lat="63.854896115987" lon="20.328880316339">
        <ele>59</ele>
        <time>2018-07-25T08:42:50Z</time>
      </trkpt>
      <trkpt lat="63.854765274528" lon="20.328819799021">
        <ele>58.8</ele>
        <time>2018-07-25T08:42:56Z</time>
      </trkpt>
      <trkpt lat="63.854575927407" lon="20.328812087673">
        <ele>58.8</ele>
        <time>2018-07-25T08:43:02Z</time>
      </trkpt>
      <trkpt lat="63.854383227526" lon="20.328830360215">
        <ele>58.8</ele>
        <time>2018-07-25T08:43:07Z</time>
      </trkpt>
      <trkpt lat="63.854197149346" lon="20.328793144579">
        <ele>59</ele>
        <time>2018-07-25T08:43:13Z</time>
      </trkpt>
      <trkpt lat="63.854050801372" lon="20.328773866209">
        <ele>59.6</ele>
        <time>2018-07-25T08:43:19Z</time>
      </trkpt>
      <trkpt lat="63.853914427859" lon="20.328750229251">
        <ele>59.2</ele>
        <time>2018-07-25T08:43:25Z</time>
      </trkpt>
      <trkpt lat="63.853783334943" lon="20.328703961163">
        <ele>59.2</ele>
        <time>2018-07-25T08:43:31Z</time>
      </trkpt>
      <trkpt lat="63.853657103529" lon="20.328670265925">
        <ele>59.8</ele>
        <time>2018-07-25T08:43:37Z</time>
      </trkpt>
      <trkpt lat="63.853580325325" lon="20.328652328659">
        <ele>59.8</ele>
        <time>2018-07-25T08:43:40Z</time>
      </trkpt>
      <trkpt lat="63.853453590997" lon="20.328625255122">
        <ele>60</ele>
        <time>2018-07-25T08:43:46Z</time>
      </trkpt>
      <trkpt lat="63.853277403459" lon="20.328604048915">
        <ele>60.2</ele>
        <time>2018-07-25T08:43:52Z</time>
      </trkpt>
      <trkpt lat="63.853112615305" lon="20.328557864646">
        <ele>60</ele>
        <time>2018-07-25T08:43:58Z</time>
      </trkpt>
      <trkpt lat="63.852984120778" lon="20.328520732829">
        <ele>59.8</ele>
        <time>2018-07-25T08:44:04Z</time>
      </trkpt>
      <trkpt lat="63.852830396732" lon="20.328476811673">
        <ele>60.2</ele>
        <time>2018-07-25T08:44:10Z</time>
      </trkpt>
      <trkpt lat="63.852727131724" lon="20.328471950171">
        <ele>60.8</ele>
        <time>2018-07-25T08:44:15Z</time>
      </trkpt>
      <trkpt lat="63.852580364655" lon="20.328462143348">
        <ele>61</ele>
        <time>2018-07-25T08:44:20Z</time>
      </trkpt>
      <trkpt lat="63.852424293677" lon="20.328441356236">
        <ele>60.4</ele>
        <time>2018-07-25T08:44:26Z</time>
      </trkpt>
      <trkpt lat="63.852267384509" lon="20.328390478103">
        <ele>60.4</ele>
        <time>2018-07-25T08:44:32Z</time>
      </trkpt>
      <trkpt lat="63.852151043737" lon="20.328384946049">
        <ele>60.4</ele>
        <time>2018-07-25T08:44:38Z</time>
      </trkpt>
      <trkpt lat="63.852090610238" lon="20.328364242756">
        <ele>60.6</ele>
        <time>2018-07-25T08:44:41Z</time>
      </trkpt>
      <trkpt lat="63.851945100454" lon="20.328432303784">
        <ele>61</ele>
        <time>2018-07-25T08:44:47Z</time>
      </trkpt>
      <trkpt lat="63.851884918412" lon="20.328595331739">
        <ele>62</ele>
        <time>2018-07-25T08:44:51Z</time>
      </trkpt>
      <trkpt lat="63.851833788822" lon="20.32879473714">
        <ele>61.8</ele>
        <time>2018-07-25T08:44:56Z</time>
      </trkpt>
      <trkpt lat="63.851822054162" lon="20.329035381489">
        <ele>61.2</ele>
        <time>2018-07-25T08:45:02Z</time>
      </trkpt>
      <trkpt lat="63.85184233836" lon="20.329338051898">
        <ele>62</ele>
        <time>2018-07-25T08:45:08Z</time>
      </trkpt>
      <trkpt lat="63.851878967263" lon="20.329673327898">
        <ele>62.2</ele>
        <time>2018-07-25T08:45:14Z</time>
      </trkpt>
      <trkpt lat="63.851764889604" lon="20.329855298947">
        <ele>62.2</ele>
        <time>2018-07-25T08:45:20Z</time>
      </trkpt>
      <trkpt lat="63.851654835257" lon="20.329944482363">
        <ele>62</ele>
        <time>2018-07-25T08:45:25Z</time>
      </trkpt>
      <trkpt lat="63.851486275248" lon="20.330113545286">
        <ele>62.8</ele>
        <time>2018-07-25T08:45:31Z</time>
      </trkpt>
      <trkpt lat="63.851457525331" lon="20.330175655165">
        <ele>63</ele>
        <time>2018-07-25T08:45:33Z</time>
      </trkpt>
      <trkpt lat="63.851426679939" lon="20.330230137515">
        <ele>63.2</ele>
        <time>2018-07-25T08:45:35Z</time>
      </trkpt>
      <trkpt lat="63.851351578115" lon="20.330287218254">
        <ele>64.2</ele>
        <time>2018-07-25T08:45:40Z</time>
      </trkpt>
      <trkpt lat="63.851252755514" lon="20.330288726996">
        <ele>64.8</ele>
        <time>2018-07-25T08:45:46Z</time>
      </trkpt>
      <trkpt lat="63.851224257054" lon="20.330288475539">
        <ele>65</ele>
        <time>2018-07-25T08:45:48Z</time>
      </trkpt>
      <trkpt lat="63.851131888516" lon="20.330221168882">
        <ele>65.2</ele>
        <time>2018-07-25T08:45:54Z</time>
      </trkpt>
      <trkpt lat="63.851102300409" lon="20.330193843888">
        <ele>65.4</ele>
        <time>2018-07-25T08:45:56Z</time>
      </trkpt>
      <trkpt lat="63.8510678508" lon="20.330150258008">
        <ele>65.6</ele>
        <time>2018-07-25T08:45:58Z</time>
      </trkpt>
      <trkpt lat="63.850950671838" lon="20.330012040477">
        <ele>65.4</ele>
        <time>2018-07-25T08:46:04Z</time>
      </trkpt>
      <trkpt lat="63.850832151772" lon="20.329841468812">
        <ele>65.2</ele>
        <time>2018-07-25T08:46:10Z</time>
      </trkpt>
      <trkpt lat="63.850698376648" lon="20.329661844695">
        <ele>65.2</ele>
        <time>2018-07-25T08:46:16Z</time>
      </trkpt>
      <trkpt lat="63.850571139406" lon="20.329489177555">
        <ele>65.4</ele>
        <time>2018-07-25T08:46:22Z</time>
      </trkpt>
      <trkpt lat="63.850491259899" lon="20.329348948368">
        <ele>65.4</ele>
        <time>2018-07-25T08:46:26Z</time>
      </trkpt>
      <trkpt lat="63.850383133389" lon="20.329175023943">
        <ele>65</ele>
        <time>2018-07-25T08:46:32Z</time>
      </trkpt>
      <trkpt lat="63.850262936943" lon="20.32902104844">
        <ele>65.2</ele>
        <time>2018-07-25T08:46:38Z</time>
      </trkpt>
      <trkpt lat="63.850145087429" lon="20.328917364337">
        <ele>65.4</ele>
        <time>2018-07-25T08:46:44Z</time>
      </trkpt>
      <trkpt lat="63.850004020052" lon="20.32875366583">
        <ele>66.2</ele>
        <time>2018-07-25T08:46:50Z</time>
      </trkpt>
      <trkpt lat="63.849913076437" lon="20.328655094686">
        <ele>66.4</ele>
        <time>2018-07-25T08:46:55Z</time>
      </trkpt>
      <trkpt lat="63.849801597167" lon="20.328561804139">
        <ele>67</ele>
        <time>2018-07-25T08:47:01Z</time>
      </trkpt>
      <trkpt lat="63.84966555893" lon="20.328474045646">
        <ele>67.6</ele>
        <time>2018-07-25T08:47:07Z</time>
      </trkpt>
      <trkpt lat="63.849503452984" lon="20.328367176421">
        <ele>68.6</ele>
        <time>2018-07-25T08:47:13Z</time>
      </trkpt>
      <trkpt lat="63.84933782664" lon="20.32829433771">
        <ele>69.2</ele>
        <time>2018-07-25T08:47:19Z</time>
      </trkpt>
      <trkpt lat="63.849207655733" lon="20.328275310797">
        <ele>69.6</ele>
        <time>2018-07-25T08:47:22Z</time>
      </trkpt>
      <trkpt lat="63.849171613563" lon="20.328335995753">
        <ele>70</ele>
        <time>2018-07-25T08:47:24Z</time>
      </trkpt>
      <trkpt lat="63.849141522542" lon="20.328454432">
        <ele>70.8</ele>
        <time>2018-07-25T08:47:27Z</time>
      </trkpt>
      <trkpt lat="63.849087626925" lon="20.328688789924">
        <ele>71.8</ele>
        <time>2018-07-25T08:47:33Z</time>
      </trkpt>
      <trkpt lat="63.849060553388" lon="20.328823319419">
        <ele>72.8</ele>
        <time>2018-07-25T08:47:36Z</time>
      </trkpt>
      <trkpt lat="63.849021242277" lon="20.329028256874">
        <ele>74</ele>
        <time>2018-07-25T08:47:41Z</time>
      </trkpt>
      <trkpt lat="63.848982350261" lon="20.329235205985">
        <ele>74.6</ele>
        <time>2018-07-25T08:47:46Z</time>
      </trkpt>
      <trkpt lat="63.848961227873" lon="20.329514826169">
        <ele>75.8</ele>
        <time>2018-07-25T08:48:11Z</time>
      </trkpt>
      <trkpt lat="63.848964161538" lon="20.329503342966">
        <ele>75.8</ele>
        <time>2018-07-25T08:48:12Z</time>
      </trkpt>
      <trkpt lat="63.848967262841" lon="20.329228500465">
        <ele>75.2</ele>
        <time>2018-07-25T08:48:18Z</time>
      </trkpt>
      <trkpt lat="63.848975812379" lon="20.329085253794">
        <ele>74.6</ele>
        <time>2018-07-25T08:48:21Z</time>
      </trkpt>
      <trkpt lat="63.849017135146" lon="20.328766657775">
        <ele>73.6</ele>
        <time>2018-07-25T08:48:27Z</time>
      </trkpt>
      <trkpt lat="63.849041861751" lon="20.328566246546">
        <ele>72.6</ele>
        <time>2018-07-25T08:48:31Z</time>
      </trkpt>
      <trkpt lat="63.849051836212" lon="20.328366002955">
        <ele>71.4</ele>
        <time>2018-07-25T08:48:35Z</time>
      </trkpt>
      <trkpt lat="63.848978159311" lon="20.328136925628">
        <ele>70.4</ele>
        <time>2018-07-25T08:48:41Z</time>
      </trkpt>
      <trkpt lat="63.848829212948" lon="20.328050005325">
        <ele>70.4</ele>
        <time>2018-07-25T08:48:47Z</time>
      </trkpt>
      <trkpt lat="63.848675405083" lon="20.327916481658">
        <ele>71.2</ele>
        <time>2018-07-25T08:48:54Z</time>
      </trkpt>
      <trkpt lat="63.848657383998" lon="20.327892928519">
        <ele>71.6</ele>
        <time>2018-07-25T08:48:55Z</time>
      </trkpt>
      <trkpt lat="63.848548754574" lon="20.327733337143">
        <ele>72.4</ele>
        <time>2018-07-25T08:49:01Z</time>
      </trkpt>
      <trkpt lat="63.848504079047" lon="20.327693606937">
        <ele>72.6</ele>
        <time>2018-07-25T08:49:03Z</time>
      </trkpt>
      <trkpt lat="63.848387486818" lon="20.327606518996">
        <ele>73.6</ele>
        <time>2018-07-25T08:49:09Z</time>
      </trkpt>
      <trkpt lat="63.848289586226" lon="20.327505768558">
        <ele>73.6</ele>
        <time>2018-07-25T08:49:15Z</time>
      </trkpt>
      <trkpt lat="63.848269050571" lon="20.327490345862">
        <ele>73.8</ele>
        <time>2018-07-25T08:49:16Z</time>
      </trkpt>
      <trkpt lat="63.848135107809" lon="20.327487915111">
        <ele>74.2</ele>
        <time>2018-07-25T08:49:22Z</time>
      </trkpt>
      <trkpt lat="63.848110800299" lon="20.327542313642">
        <ele>74.6</ele>
        <time>2018-07-25T08:49:24Z</time>
      </trkpt>
      <trkpt lat="63.848102669856" lon="20.327529992249">
        <ele>74.8</ele>
        <time>2018-07-25T08:49:25Z</time>
      </trkpt>
      <trkpt lat="63.848018683218" lon="20.327374927099">
        <ele>75.2</ele>
        <time>2018-07-25T08:49:31Z</time>
      </trkpt>
      <trkpt lat="63.84791458002" lon="20.327323546052">
        <ele>75.8</ele>
        <time>2018-07-25T08:49:36Z</time>
      </trkpt>
      <trkpt lat="63.84776705858" lon="20.327298400352">
        <ele>76.6</ele>
        <time>2018-07-25T08:49:42Z</time>
      </trkpt>
      <trkpt lat="63.847638564053" lon="20.32728431876">
        <ele>76.6</ele>
        <time>2018-07-25T08:49:48Z</time>
      </trkpt>
      <trkpt lat="63.84750638149" lon="20.327156997699">
        <ele>75.6</ele>
        <time>2018-07-25T08:49:54Z</time>
      </trkpt>
      <trkpt lat="63.847406972156" lon="20.327084494264">
        <ele>75.4</ele>
        <time>2018-07-25T08:50:00Z</time>
      </trkpt>
      <trkpt lat="63.847225336383" lon="20.327077202011">
        <ele>75.6</ele>
        <time>2018-07-25T08:50:06Z</time>
      </trkpt>
      <trkpt lat="63.847054848537" lon="20.327071837595">
        <ele>75.8</ele>
        <time>2018-07-25T08:50:12Z</time>
      </trkpt>
      <trkpt lat="63.846958875782" lon="20.327069406844">
        <ele>74.6</ele>
        <time>2018-07-25T08:50:17Z</time>
      </trkpt>
      <trkpt lat="63.846830465074" lon="20.327061276401">
        <ele>73.6</ele>
        <time>2018-07-25T08:50:22Z</time>
      </trkpt>
      <trkpt lat="63.846657714115" lon="20.327045686067">
        <ele>73</ele>
        <time>2018-07-25T08:50:28Z</time>
      </trkpt>
      <trkpt lat="63.846598873177" lon="20.327030179552">
        <ele>72.6</ele>
        <time>2018-07-25T08:50:30Z</time>
      </trkpt>
      <trkpt lat="63.846452106108" lon="20.326996316676">
        <ele>71.8</ele>
        <time>2018-07-25T08:50:36Z</time>
      </trkpt>
      <trkpt lat="63.846277678769" lon="20.327016768512">
        <ele>71.8</ele>
        <time>2018-07-25T08:50:42Z</time>
      </trkpt>
      <trkpt lat="63.846107945294" lon="20.32708902049">
        <ele>71.6</ele>
        <time>2018-07-25T08:50:48Z</time>
      </trkpt>
      <trkpt lat="63.846055809876" lon="20.327097234752">
        <ele>71.6</ele>
        <time>2018-07-25T08:50:50Z</time>
      </trkpt>
      <trkpt lat="63.845916418879" lon="20.327076950554">
        <ele>71.4</ele>
        <time>2018-07-25T08:50:56Z</time>
      </trkpt>
      <trkpt lat="63.845796641528" lon="20.327074519803">
        <ele>71.6</ele>
        <time>2018-07-25T08:51:02Z</time>
      </trkpt>
      <trkpt lat="63.845686168086" lon="20.327092959983">
        <ele>71.4</ele>
        <time>2018-07-25T08:51:08Z</time>
      </trkpt>
      <trkpt lat="63.845581310517" lon="20.327081141504">
        <ele>71.8</ele>
        <time>2018-07-25T08:51:14Z</time>
      </trkpt>
      <trkpt lat="63.845456755483" lon="20.327062868962">
        <ele>71.6</ele>
        <time>2018-07-25T08:51:20Z</time>
      </trkpt>
      <trkpt lat="63.845328428594" lon="20.327035208692">
        <ele>72.2</ele>
        <time>2018-07-25T08:51:26Z</time>
      </trkpt>
      <trkpt lat="63.845190881615" lon="20.327031688294">
        <ele>72</ele>
        <time>2018-07-25T08:51:32Z</time>
      </trkpt>
      <trkpt lat="63.845052580265" lon="20.327038226176">
        <ele>72.4</ele>
        <time>2018-07-25T08:51:38Z</time>
      </trkpt>
      <trkpt lat="63.844878907297" lon="20.327036633615">
        <ele>72.4</ele>
        <time>2018-07-25T08:51:44Z</time>
      </trkpt>
      <trkpt lat="63.844713783867" lon="20.327074603622">
        <ele>72.4</ele>
        <time>2018-07-25T08:51:50Z</time>
      </trkpt>
      <trkpt lat="63.844542960745" lon="20.327096396562">
        <ele>72.4</ele>
        <time>2018-07-25T08:51:56Z</time>
      </trkpt>
      <trkpt lat="63.844396361314" lon="20.327151800921">
        <ele>72</ele>
        <time>2018-07-25T08:52:02Z</time>
      </trkpt>
      <trkpt lat="63.844212713885" lon="20.327124978841">
        <ele>71.6</ele>
        <time>2018-07-25T08:52:07Z</time>
      </trkpt>
      <trkpt lat="63.84404298041" lon="20.327098994951">
        <ele>72.2</ele>
        <time>2018-07-25T08:52:13Z</time>
      </trkpt>
      <trkpt lat="63.843909289105" lon="20.327045518429">
        <ele>72.4</ele>
        <time>2018-07-25T08:52:19Z</time>
      </trkpt>
      <trkpt lat="63.843888837269" lon="20.327035543968">
        <ele>72.6</ele>
        <time>2018-07-25T08:52:20Z</time>
      </trkpt>
      <trkpt lat="63.843786326632" lon="20.326987934776">
        <ele>73.2</ele>
        <time>2018-07-25T08:52:26Z</time>
      </trkpt>
      <trkpt lat="63.843653389698" lon="20.326935380263">
        <ele>73</ele>
        <time>2018-07-25T08:52:32Z</time>
      </trkpt>
      <trkpt lat="63.843495223245" lon="20.326979888152">
        <ele>73.2</ele>
        <time>2018-07-25T08:52:38Z</time>
      </trkpt>
      <trkpt lat="63.843386007088" lon="20.327102682987">
        <ele>73.2</ele>
        <time>2018-07-25T08:52:44Z</time>
      </trkpt>
      <trkpt lat="63.843277126207" lon="20.327239391776">
        <ele>73</ele>
        <time>2018-07-25T08:52:50Z</time>
      </trkpt>
      <trkpt lat="63.843144776006" lon="20.327386158845">
        <ele>73.2</ele>
        <time>2018-07-25T08:52:56Z</time>
      </trkpt>
      <trkpt lat="63.842996332557" lon="20.327517419399">
        <ele>72.6</ele>
        <time>2018-07-25T08:53:02Z</time>
      </trkpt>
      <trkpt lat="63.84293992237" lon="20.327573159034">
        <ele>72.8</ele>
        <time>2018-07-25T08:53:05Z</time>
      </trkpt>
      <trkpt lat="63.842816540802" lon="20.327685225037">
        <ele>73.2</ele>
        <time>2018-07-25T08:53:11Z</time>
      </trkpt>
      <trkpt lat="63.842719059305" lon="20.327616828733">
        <ele>73.4</ele>
        <time>2018-07-25T08:53:17Z</time>
      </trkpt>
      <trkpt lat="63.842704810075" lon="20.327591431576">
        <ele>73.6</ele>
        <time>2018-07-25T08:53:18Z</time>
      </trkpt>
      <trkpt lat="63.842662565299" lon="20.327468552922">
        <ele>74.6</ele>
        <time>2018-07-25T08:53:22Z</time>
      </trkpt>
      <trkpt lat="63.842604897827" lon="20.327346177182">
        <ele>76</ele>
        <time>2018-07-25T08:53:25Z</time>
      </trkpt>
      <trkpt lat="63.842544380509" lon="20.327208630203">
        <ele>77.2</ele>
        <time>2018-07-25T08:53:28Z</time>
      </trkpt>
      <trkpt lat="63.842446982831" lon="20.326986006939">
        <ele>78.4</ele>
        <time>2018-07-25T08:53:34Z</time>
      </trkpt>
      <trkpt lat="63.842402558761" lon="20.32686690014">
        <ele>79.6</ele>
        <time>2018-07-25T08:53:37Z</time>
      </trkpt>
      <trkpt lat="63.842342209081" lon="20.326688198032">
        <ele>80.6</ele>
        <time>2018-07-25T08:53:42Z</time>
      </trkpt>
      <trkpt lat="63.8422836196" lon="20.326460210352">
        <ele>81</ele>
        <time>2018-07-25T08:53:48Z</time>
      </trkpt>
      <trkpt lat="63.842216480581" lon="20.326246052807">
        <ele>80.4</ele>
        <time>2018-07-25T08:53:54Z</time>
      </trkpt>
      <trkpt lat="63.842173397615" lon="20.32613516027">
        <ele>79.4</ele>
        <time>2018-07-25T08:53:57Z</time>
      </trkpt>
      <trkpt lat="63.842074491195" lon="20.325994428169">
        <ele>78.4</ele>
        <time>2018-07-25T08:54:03Z</time>
      </trkpt>
      <trkpt lat="63.842056973024" lon="20.325970204478">
        <ele>78.2</ele>
        <time>2018-07-25T08:54:04Z</time>
      </trkpt>
      <trkpt lat="63.841924119909" lon="20.32585771938">
        <ele>77.8</ele>
        <time>2018-07-25T08:54:10Z</time>
      </trkpt>
      <trkpt lat="63.841862093849" lon="20.325795777139">
        <ele>77</ele>
        <time>2018-07-25T08:54:13Z</time>
      </trkpt>
      <trkpt lat="63.841803672006" lon="20.325748000309">
        <ele>77</ele>
        <time>2018-07-25T08:54:15Z</time>
      </trkpt>
      <trkpt lat="63.841668304321" lon="20.325621014524">
        <ele>77.4</ele>
        <time>2018-07-25T08:54:21Z</time>
      </trkpt>
      <trkpt lat="63.841532433722" lon="20.325454801447">
        <ele>77</ele>
        <time>2018-07-25T08:54:27Z</time>
      </trkpt>
      <trkpt lat="63.841427408515" lon="20.325255982779">
        <ele>76.4</ele>
        <time>2018-07-25T08:54:33Z</time>
      </trkpt>
      <trkpt lat="63.841368902853" lon="20.325208205949">
        <ele>76.2</ele>
        <time>2018-07-25T08:54:35Z</time>
      </trkpt>
      <trkpt lat="63.841338644194" lon="20.32520476937">
        <ele>76</ele>
        <time>2018-07-25T08:54:36Z</time>
      </trkpt>
      <trkpt lat="63.841184501053" lon="20.325331084603">
        <ele>76.4</ele>
        <time>2018-07-25T08:54:42Z</time>
      </trkpt>
      <trkpt lat="63.841121469165" lon="20.325408952454">
        <ele>77.2</ele>
        <time>2018-07-25T08:54:45Z</time>
      </trkpt>
      <trkpt lat="63.841031531378" lon="20.325509619073">
        <ele>78.4</ele>
        <time>2018-07-25T08:54:50Z</time>
      </trkpt>
      <trkpt lat="63.840924997429" lon="20.325553875505">
        <ele>79.6</ele>
        <time>2018-07-25T08:54:55Z</time>
      </trkpt>
      <trkpt lat="63.840883507024" lon="20.325588408933">
        <ele>80</ele>
        <time>2018-07-25T08:54:57Z</time>
      </trkpt>
      <trkpt lat="63.840848219225" lon="20.325639957618">
        <ele>80.6</ele>
        <time>2018-07-25T08:54:59Z</time>
      </trkpt>
      <trkpt lat="63.840824498448" lon="20.325698547099">
        <ele>82</ele>
        <time>2018-07-25T08:55:02Z</time>
      </trkpt>
      <trkpt lat="63.840791054667" lon="20.325916895594">
        <ele>83.2</ele>
        <time>2018-07-25T08:55:07Z</time>
      </trkpt>
      <trkpt lat="63.840764986958" lon="20.326175309571">
        <ele>84.2</ele>
        <time>2018-07-25T08:55:12Z</time>
      </trkpt>
      <trkpt lat="63.840615370043" lon="20.326599182254">
        <ele>85.2</ele>
        <time>2018-07-25T08:55:21Z</time>
      </trkpt>
      <trkpt lat="63.840552086698" lon="20.326853070005">
        <ele>84.6</ele>
        <time>2018-07-25T08:55:27Z</time>
      </trkpt>
      <trkpt lat="63.840537753649" lon="20.326923394146">
        <ele>84</ele>
        <time>2018-07-25T08:55:29Z</time>
      </trkpt>
      <trkpt lat="63.840477655426" lon="20.327116094027">
        <ele>83</ele>
        <time>2018-07-25T08:55:35Z</time>
      </trkpt>
      <trkpt lat="63.840377240264" lon="20.327306782252">
        <ele>81.8</ele>
        <time>2018-07-25T08:55:40Z</time>
      </trkpt>
      <trkpt lat="63.840253691058" lon="20.327413651477">
        <ele>80.8</ele>
        <time>2018-07-25T08:55:46Z</time>
      </trkpt>
      <trkpt lat="63.84015042605" lon="20.32750057178">
        <ele>80</ele>
        <time>2018-07-25T08:55:52Z</time>
      </trkpt>
      <trkpt lat="63.840127124368" lon="20.327511719707">
        <ele>79.6</ele>
        <time>2018-07-25T08:55:53Z</time>
      </trkpt>
      <trkpt lat="63.839959486368" lon="20.32755337775">
        <ele>79.2</ele>
        <time>2018-07-25T08:55:59Z</time>
      </trkpt>
      <trkpt lat="63.83984700127" lon="20.327562514021">
        <ele>78.6</ele>
        <time>2018-07-25T08:56:04Z</time>
      </trkpt>
      <trkpt lat="63.839735773457" lon="20.327582630581">
        <ele>77.4</ele>
        <time>2018-07-25T08:56:09Z</time>
      </trkpt>
      <trkpt lat="63.839573835149" lon="20.327561508193">
        <ele>76.2</ele>
        <time>2018-07-25T08:56:15Z</time>
      </trkpt>
      <trkpt lat="63.839445592079" lon="20.327575422147">
        <ele>76.2</ele>
        <time>2018-07-25T08:56:21Z</time>
      </trkpt>
      <trkpt lat="63.839350206057" lon="20.327587492083">
        <ele>75.2</ele>
        <time>2018-07-25T08:56:26Z</time>
      </trkpt>
      <trkpt lat="63.8391906985" lon="20.327569051903">
        <ele>75</ele>
        <time>2018-07-25T08:56:32Z</time>
      </trkpt>
      <trkpt lat="63.839037058273" lon="20.327581540934">
        <ele>74.6</ele>
        <time>2018-07-25T08:56:38Z</time>
      </trkpt>
      <trkpt lat="63.83897696005" lon="20.327636945293">
        <ele>74.4</ele>
        <time>2018-07-25T08:56:40Z</time>
      </trkpt>
      <trkpt lat="63.838943348631" lon="20.327701569742">
        <ele>74</ele>
        <time>2018-07-25T08:56:42Z</time>
      </trkpt>
      <trkpt lat="63.838879981467" lon="20.32798672198">
        <ele>73.4</ele>
        <time>2018-07-25T08:56:48Z</time>
      </trkpt>
      <trkpt lat="63.838867324798" lon="20.328031565145">
        <ele>73</ele>
        <time>2018-07-25T08:56:49Z</time>
      </trkpt>
      <trkpt lat="63.838834970664" lon="20.328235748229">
        <ele>72</ele>
        <time>2018-07-25T08:56:54Z</time>
      </trkpt>
      <trkpt lat="63.838804879643" lon="20.328558451379">
        <ele>71.2</ele>
        <time>2018-07-25T08:57:00Z</time>
      </trkpt>
      <trkpt lat="63.838810411697" lon="20.328741260618">
        <ele>71</ele>
        <time>2018-07-25T08:57:04Z</time>
      </trkpt>
      <trkpt lat="63.838833964836" lon="20.329013085635">
        <ele>70</ele>
        <time>2018-07-25T08:57:10Z</time>
      </trkpt>
      <trkpt lat="63.838871767205" lon="20.32929597476">
        <ele>69</ele>
        <time>2018-07-25T08:57:16Z</time>
      </trkpt>
      <trkpt lat="63.838890710299" lon="20.329395803189">
        <ele>69</ele>
        <time>2018-07-25T08:57:18Z</time>
      </trkpt>
      <trkpt lat="63.838897080543" lon="20.329450788453">
        <ele>68.8</ele>
        <time>2018-07-25T08:57:19Z</time>
      </trkpt>
      <trkpt lat="63.838875622879" lon="20.32956671013">
        <ele>68.6</ele>
        <time>2018-07-25T08:57:21Z</time>
      </trkpt>
      <trkpt lat="63.838761377582" lon="20.329880779923">
        <ele>67.8</ele>
        <time>2018-07-25T08:57:27Z</time>
      </trkpt>
      <trkpt lat="63.838745368153" lon="20.329997875066">
        <ele>67.8</ele>
        <time>2018-07-25T08:57:29Z</time>
      </trkpt>
      <trkpt lat="63.838714522761" lon="20.33033700674">
        <ele>67.6</ele>
        <time>2018-07-25T08:57:35Z</time>
      </trkpt>
      <trkpt lat="63.838706559956" lon="20.330695081508">
        <ele>68.6</ele>
        <time>2018-07-25T08:57:41Z</time>
      </trkpt>
      <trkpt lat="63.838701782273" lon="20.331036811571">
        <ele>67.8</ele>
        <time>2018-07-25T08:57:47Z</time>
      </trkpt>
      <trkpt lat="63.838706308499" lon="20.331371752295">
        <ele>68.2</ele>
        <time>2018-07-25T08:57:53Z</time>
      </trkpt>
      <trkpt lat="63.838670769243" lon="20.331699316947">
        <ele>68.4</ele>
        <time>2018-07-25T08:57:59Z</time>
      </trkpt>
      <trkpt lat="63.838635146168" lon="20.332046159969">
        <ele>68.2</ele>
        <time>2018-07-25T08:58:05Z</time>
      </trkpt>
      <trkpt lat="63.838635397625" lon="20.332372802612">
        <ele>68.4</ele>
        <time>2018-07-25T08:58:11Z</time>
      </trkpt>
      <trkpt lat="63.838647886656" lon="20.332546643218">
        <ele>68.2</ele>
        <time>2018-07-25T08:58:15Z</time>
      </trkpt>
      <trkpt lat="63.838677977677" lon="20.332609675106">
        <ele>68</ele>
        <time>2018-07-25T08:58:17Z</time>
      </trkpt>
      <trkpt lat="63.8388302768" lon="20.332681256532">
        <ele>67.8</ele>
        <time>2018-07-25T08:58:23Z</time>
      </trkpt>
      <trkpt lat="63.83897863643" lon="20.33274764118">
        <ele>68</ele>
        <time>2018-07-25T08:58:29Z</time>
      </trkpt>
      <trkpt lat="63.839141832023" lon="20.332796675295">
        <ele>68.4</ele>
        <time>2018-07-25T08:58:35Z</time>
      </trkpt>
      <trkpt lat="63.839216095657" lon="20.332817797683">
        <ele>68.8</ele>
        <time>2018-07-25T08:58:38Z</time>
      </trkpt>
      <trkpt lat="63.839358923233" lon="20.332869011092">
        <ele>69</ele>
        <time>2018-07-25T08:58:44Z</time>
      </trkpt>
      <trkpt lat="63.83950753432" lon="20.33288761891">
        <ele>69</ele>
        <time>2018-07-25T08:58:50Z</time>
      </trkpt>
      <trkpt lat="63.839683051306" lon="20.332900694674">
        <ele>69.4</ele>
        <time>2018-07-25T08:58:56Z</time>
      </trkpt>
      <trkpt lat="63.839855131713" lon="20.332897844828">
        <ele>69.2</ele>
        <time>2018-07-25T08:59:02Z</time>
      </trkpt>
      <trkpt lat="63.839882456707" lon="20.332895665534">
        <ele>69</ele>
        <time>2018-07-25T08:59:03Z</time>
      </trkpt>
      <trkpt lat="63.840040706979" lon="20.33289432443">
        <ele>69.4</ele>
        <time>2018-07-25T08:59:09Z</time>
      </trkpt>
      <trkpt lat="63.840205411314" lon="20.33289348624">
        <ele>69.4</ele>
        <time>2018-07-25T08:59:15Z</time>
      </trkpt>
      <trkpt lat="63.840357878075" lon="20.332884349969">
        <ele>69.2</ele>
        <time>2018-07-25T08:59:21Z</time>
      </trkpt>
      <trkpt lat="63.840494754502" lon="20.332926678564">
        <ele>69.2</ele>
        <time>2018-07-25T08:59:27Z</time>
      </trkpt>
      <trkpt lat="63.840639593734" lon="20.33293707212">
        <ele>69.4</ele>
        <time>2018-07-25T08:59:33Z</time>
      </trkpt>
      <trkpt lat="63.8407832595" lon="20.332941598346">
        <ele>69.4</ele>
        <time>2018-07-25T08:59:39Z</time>
      </trkpt>
      <trkpt lat="63.840921979945" lon="20.332964313295">
        <ele>69.6</ele>
        <time>2018-07-25T08:59:45Z</time>
      </trkpt>
      <trkpt lat="63.841081571321" lon="20.332989458995">
        <ele>69.6</ele>
        <time>2018-07-25T08:59:51Z</time>
      </trkpt>
      <trkpt lat="63.841224315078" lon="20.333013766505">
        <ele>69.8</ele>
        <time>2018-07-25T08:59:57Z</time>
      </trkpt>
      <trkpt lat="63.841373764355" lon="20.333047545562">
        <ele>69.6</ele>
        <time>2018-07-25T09:00:03Z</time>
      </trkpt>
      <trkpt lat="63.841525812021" lon="20.333065650466">
        <ele>69.8</ele>
        <time>2018-07-25T09:00:09Z</time>
      </trkpt>
      <trkpt lat="63.841677775868" lon="20.333087862501">
        <ele>69.6</ele>
        <time>2018-07-25T09:00:15Z</time>
      </trkpt>
      <trkpt lat="63.841866452437" lon="20.333069589959">
        <ele>69.6</ele>
        <time>2018-07-25T09:00:21Z</time>
      </trkpt>
      <trkpt lat="63.842039538672" lon="20.333064560819">
        <ele>69.2</ele>
        <time>2018-07-25T09:00:27Z</time>
      </trkpt>
      <trkpt lat="63.8421914187" lon="20.333080821705">
        <ele>69.4</ele>
        <time>2018-07-25T09:00:33Z</time>
      </trkpt>
      <trkpt lat="63.842335168285" lon="20.333086437578">
        <ele>69.4</ele>
        <time>2018-07-25T09:00:39Z</time>
      </trkpt>
      <trkpt lat="63.842464584821" lon="20.33313488496">
        <ele>69.2</ele>
        <time>2018-07-25T09:00:45Z</time>
      </trkpt>
      <trkpt lat="63.842619314695" lon="20.333142009575">
        <ele>69.4</ele>
        <time>2018-07-25T09:00:51Z</time>
      </trkpt>
      <trkpt lat="63.84278401903" lon="20.333135471693">
        <ele>69.6</ele>
        <time>2018-07-25T09:00:57Z</time>
      </trkpt>
      <trkpt lat="63.84285777975" lon="20.333126419241">
        <ele>70</ele>
        <time>2018-07-25T09:01:00Z</time>
      </trkpt>
      <trkpt lat="63.843006055561" lon="20.333101022084">
        <ele>69.8</ele>
        <time>2018-07-25T09:01:06Z</time>
      </trkpt>
      <trkpt lat="63.843164389652" lon="20.333134465865">
        <ele>70.4</ele>
        <time>2018-07-25T09:01:12Z</time>
      </trkpt>
      <trkpt lat="63.843313503653" lon="20.333163131963">
        <ele>70.4</ele>
        <time>2018-07-25T09:01:18Z</time>
      </trkpt>
      <trkpt lat="63.843534031442" lon="20.333189283491">
        <ele>70.4</ele>
        <time>2018-07-25T09:01:27Z</time>
      </trkpt>
      <trkpt lat="63.843723462382" lon="20.333183583799">
        <ele>70.2</ele>
        <time>2018-07-25T09:01:33Z</time>
      </trkpt>
      <trkpt lat="63.843881545016" lon="20.333197665391">
        <ele>70.6</ele>
        <time>2018-07-25T09:01:39Z</time>
      </trkpt>
      <trkpt lat="63.84397341064" lon="20.333183919075">
        <ele>71</ele>
        <time>2018-07-25T09:01:43Z</time>
      </trkpt>
      <trkpt lat="63.844114897112" lon="20.333208980956">
        <ele>71</ele>
        <time>2018-07-25T09:01:49Z</time>
      </trkpt>
      <trkpt lat="63.844254288109" lon="20.333423557596">
        <ele>70.6</ele>
        <time>2018-07-25T09:01:55Z</time>
      </trkpt>
      <trkpt lat="63.844418154254" lon="20.333672500026">
        <ele>71.2</ele>
        <time>2018-07-25T09:02:01Z</time>
      </trkpt>
      <trkpt lat="63.844583193865" lon="20.333903589009">
        <ele>70.6</ele>
        <time>2018-07-25T09:02:07Z</time>
      </trkpt>
      <trkpt lat="63.844612027601" lon="20.334244145606">
        <ele>71.4</ele>
        <time>2018-07-25T09:02:13Z</time>
      </trkpt>
      <trkpt lat="63.844649913789" lon="20.334564418005">
        <ele>71</ele>
        <time>2018-07-25T09:02:19Z</time>
      </trkpt>
      <trkpt lat="63.844676735869" lon="20.334877230513">
        <ele>70.2</ele>
        <time>2018-07-25T09:02:25Z</time>
      </trkpt>
      <trkpt lat="63.844728368373" lon="20.335047885997">
        <ele>70</ele>
        <time>2018-07-25T09:02:29Z</time>
      </trkpt>
      <trkpt lat="63.844806822957" lon="20.335306216155">
        <ele>70</ele>
        <time>2018-07-25T09:02:35Z</time>
      </trkpt>
      <trkpt lat="63.844917296399" lon="20.335587345081">
        <ele>69.2</ele>
        <time>2018-07-25T09:02:41Z</time>
      </trkpt>
      <trkpt lat="63.845020980502" lon="20.335857577537">
        <ele>69.2</ele>
        <time>2018-07-25T09:02:47Z</time>
      </trkpt>
      <trkpt lat="63.845073032101" lon="20.336049690685">
        <ele>69</ele>
        <time>2018-07-25T09:02:51Z</time>
      </trkpt>
      <trkpt lat="63.845147211916" lon="20.336346745221">
        <ele>68.6</ele>
        <time>2018-07-25T09:02:57Z</time>
      </trkpt>
      <trkpt lat="63.845213009831" lon="20.336594178909">
        <ele>68.6</ele>
        <time>2018-07-25T09:03:03Z</time>
      </trkpt>
      <trkpt lat="63.845353825751" lon="20.336644470309">
        <ele>68.4</ele>
        <time>2018-07-25T09:03:09Z</time>
      </trkpt>
      <trkpt lat="63.845361788556" lon="20.336654360951">
        <ele>68.4</ele>
        <time>2018-07-25T09:03:10Z</time>
      </trkpt>
      <trkpt lat="63.845235138047" lon="20.336635082581">
        <ele>68</ele>
        <time>2018-07-25T09:03:16Z</time>
      </trkpt>
      <trkpt lat="63.845205885216" lon="20.336645559956">
        <ele>68</ele>
        <time>2018-07-25T09:03:17Z</time>
      </trkpt>
      <trkpt lat="63.845175458919" lon="20.336719739771">
        <ele>67.6</ele>
        <time>2018-07-25T09:03:19Z</time>
      </trkpt>
      <trkpt lat="63.845197335678" lon="20.337028193691">
        <ele>67.8</ele>
        <time>2018-07-25T09:03:25Z</time>
      </trkpt>
      <trkpt lat="63.845278891565" lon="20.33730488021">
        <ele>67.4</ele>
        <time>2018-07-25T09:03:31Z</time>
      </trkpt>
      <trkpt lat="63.845330775526" lon="20.337608053533">
        <ele>67</ele>
        <time>2018-07-25T09:03:37Z</time>
      </trkpt>
      <trkpt lat="63.84538156984" lon="20.337906952087">
        <ele>66.8</ele>
        <time>2018-07-25T09:03:43Z</time>
      </trkpt>
      <trkpt lat="63.8454268321" lon="20.338199480397">
        <ele>66.4</ele>
        <time>2018-07-25T09:03:49Z</time>
      </trkpt>
      <trkpt lat="63.845482823192" lon="20.338519501339">
        <ele>66.2</ele>
        <time>2018-07-25T09:03:55Z</time>
      </trkpt>
      <trkpt lat="63.845507633616" lon="20.338605918728">
        <ele>65.8</ele>
        <time>2018-07-25T09:03:57Z</time>
      </trkpt>
      <trkpt lat="63.845578125395" lon="20.338901045427">
        <ele>65.8</ele>
        <time>2018-07-25T09:04:03Z</time>
      </trkpt>
      <trkpt lat="63.8456699072" lon="20.339163482716">
        <ele>65</ele>
        <time>2018-07-25T09:04:09Z</time>
      </trkpt>
      <trkpt lat="63.845737549133" lon="20.339473780654">
        <ele>65</ele>
        <time>2018-07-25T09:04:15Z</time>
      </trkpt>
      <trkpt lat="63.845784320135" lon="20.339700343411">
        <ele>64.6</ele>
        <time>2018-07-25T09:04:19Z</time>
      </trkpt>
      <trkpt lat="63.845819691753" lon="20.33979933365">
        <ele>64.8</ele>
        <time>2018-07-25T09:04:21Z</time>
      </trkpt>
      <trkpt lat="63.84593226067" lon="20.339923050494">
        <ele>64.4</ele>
        <time>2018-07-25T09:04:27Z</time>
      </trkpt>
      <trkpt lat="63.846033933117" lon="20.339920284467">
        <ele>64.6</ele>
        <time>2018-07-25T09:04:33Z</time>
      </trkpt>
      <trkpt lat="63.846085984716" lon="20.339932857317">
        <ele>64.6</ele>
        <time>2018-07-25T09:04:37Z</time>
      </trkpt>
      <trkpt lat="63.846149268061" lon="20.339941909769">
        <ele>65</ele>
        <time>2018-07-25T09:04:41Z</time>
      </trkpt>
      <trkpt lat="63.8462566402" lon="20.33995691337">
        <ele>64.8</ele>
        <time>2018-07-25T09:04:47Z</time>
      </trkpt>
      <trkpt lat="63.846389325677" lon="20.339978957767">
        <ele>65</ele>
        <time>2018-07-25T09:04:53Z</time>
      </trkpt>
      <trkpt lat="63.8465583886" lon="20.339981807613">
        <ele>64</ele>
        <time>2018-07-25T09:04:59Z</time>
      </trkpt>
      <trkpt lat="63.846737258346" lon="20.339982478165">
        <ele>63.8</ele>
        <time>2018-07-25T09:05:05Z</time>
      </trkpt>
      <trkpt lat="63.846812108713" lon="20.339975185912">
        <ele>63.6</ele>
        <time>2018-07-25T09:05:07Z</time>
      </trkpt>
      <trkpt lat="63.846982764197" lon="20.34000133744">
        <ele>62.8</ele>
        <time>2018-07-25T09:05:13Z</time>
      </trkpt>
      <trkpt lat="63.847006484974" lon="20.340000163974">
        <ele>62.6</ele>
        <time>2018-07-25T09:05:14Z</time>
      </trkpt>
      <trkpt lat="63.847352489806" lon="20.339998990508">
        <ele>62.4</ele>
        <time>2018-07-25T09:05:19Z</time>
      </trkpt>
      <trkpt lat="63.847543094212" lon="20.339993542273">
        <ele>62.6</ele>
        <time>2018-07-25T09:05:24Z</time>
      </trkpt>
      <trkpt lat="63.847622806081" lon="20.339992201169">
        <ele>63.6</ele>
        <time>2018-07-25T09:05:30Z</time>
      </trkpt>
      <trkpt lat="63.847661781916" lon="20.339989686599">
        <ele>63.8</ele>
        <time>2018-07-25T09:05:32Z</time>
      </trkpt>
      <trkpt lat="63.847789438253" lon="20.340098818937">
        <ele>64.2</ele>
        <time>2018-07-25T09:05:38Z</time>
      </trkpt>
      <trkpt lat="63.847878370212" lon="20.340383468261">
        <ele>64.6</ele>
        <time>2018-07-25T09:05:44Z</time>
      </trkpt>
      <trkpt lat="63.847938636073" lon="20.340676583304">
        <ele>64</ele>
        <time>2018-07-25T09:05:50Z</time>
      </trkpt>
      <trkpt lat="63.84802605929" lon="20.340948911235">
        <ele>64.4</ele>
        <time>2018-07-25T09:05:56Z</time>
      </trkpt>
      <trkpt lat="63.848122702597" lon="20.341220233338">
        <ele>64</ele>
        <time>2018-07-25T09:06:02Z</time>
      </trkpt>
      <trkpt lat="63.848296710841" lon="20.341378399791">
        <ele>63.6</ele>
        <time>2018-07-25T09:06:08Z</time>
      </trkpt>
      <trkpt lat="63.848420092409" lon="20.341479736962">
        <ele>63.4</ele>
        <time>2018-07-25T09:06:14Z</time>
      </trkpt>
      <trkpt lat="63.848530062937" lon="20.341568082188">
        <ele>63.2</ele>
        <time>2018-07-25T09:06:19Z</time>
      </trkpt>
      <trkpt lat="63.848634920506" lon="20.34164921898">
        <ele>62.6</ele>
        <time>2018-07-25T09:06:23Z</time>
      </trkpt>
      <trkpt lat="63.848788393095" lon="20.34172214151">
        <ele>63.2</ele>
        <time>2018-07-25T09:06:29Z</time>
      </trkpt>
      <trkpt lat="63.848916803803" lon="20.341824735966">
        <ele>63.4</ele>
        <time>2018-07-25T09:06:35Z</time>
      </trkpt>
      <trkpt lat="63.849059044646" lon="20.341909141699">
        <ele>63</ele>
        <time>2018-07-25T09:06:41Z</time>
      </trkpt>
      <trkpt lat="63.849189550829" lon="20.341981896591">
        <ele>63.2</ele>
        <time>2018-07-25T09:06:47Z</time>
      </trkpt>
      <trkpt lat="63.849325505247" lon="20.342053142741">
        <ele>63.4</ele>
        <time>2018-07-25T09:06:53Z</time>
      </trkpt>
      <trkpt lat="63.849472439954" lon="20.342085664513">
        <ele>63</ele>
        <time>2018-07-25T09:06:59Z</time>
      </trkpt>
      <trkpt lat="63.849615686625" lon="20.342117934828">
        <ele>62.8</ele>
        <time>2018-07-25T09:07:05Z</time>
      </trkpt>
      <trkpt lat="63.849747533912" lon="20.342164454373">
        <ele>62.6</ele>
        <time>2018-07-25T09:07:11Z</time>
      </trkpt>
      <trkpt lat="63.850063866818" lon="20.342375510615">
        <ele>62.6</ele>
        <time>2018-07-25T09:07:22Z</time>
      </trkpt>
      <trkpt lat="63.850208789869" lon="20.342488330989">
        <ele>63</ele>
        <time>2018-07-25T09:07:28Z</time>
      </trkpt>
      <trkpt lat="63.85034952197" lon="20.342614394765">
        <ele>62.6</ele>
        <time>2018-07-25T09:07:34Z</time>
      </trkpt>
      <trkpt lat="63.850478770868" lon="20.342735680858">
        <ele>62.6</ele>
        <time>2018-07-25T09:07:40Z</time>
      </trkpt>
      <trkpt lat="63.850634758027" lon="20.342899295546">
        <ele>62.6</ele>
        <time>2018-07-25T09:07:46Z</time>
      </trkpt>
      <trkpt lat="63.850795774326" lon="20.343018402345">
        <ele>62.4</ele>
        <time>2018-07-25T09:07:52Z</time>
      </trkpt>
      <trkpt lat="63.850965675439" lon="20.34310347863">
        <ele>62.4</ele>
        <time>2018-07-25T09:07:58Z</time>
      </trkpt>
      <trkpt lat="63.851108670653" lon="20.343160894645">
        <ele>62</ele>
        <time>2018-07-25T09:08:04Z</time>
      </trkpt>
      <trkpt lat="63.851231800764" lon="20.343169947097">
        <ele>61.8</ele>
        <time>2018-07-25T09:08:10Z</time>
      </trkpt>
      <trkpt lat="63.85138720119" lon="20.343213197701">
        <ele>61.6</ele>
        <time>2018-07-25T09:08:16Z</time>
      </trkpt>
      <trkpt lat="63.851529944947" lon="20.343225519094">
        <ele>61.8</ele>
        <time>2018-07-25T09:08:22Z</time>
      </trkpt>
      <trkpt lat="63.851675119455" lon="20.343228285121">
        <ele>61.6</ele>
        <time>2018-07-25T09:08:28Z</time>
      </trkpt>
      <trkpt lat="63.851816270651" lon="20.343224345628">
        <ele>61.6</ele>
        <time>2018-07-25T09:08:34Z</time>
      </trkpt>
      <trkpt lat="63.851979382425" lon="20.343259046694">
        <ele>61.2</ele>
        <time>2018-07-25T09:08:40Z</time>
      </trkpt>
      <trkpt lat="63.8521574978" lon="20.343343620065">
        <ele>61.2</ele>
        <time>2018-07-25T09:08:46Z</time>
      </trkpt>
      <trkpt lat="63.85231591571" lon="20.343394833474">
        <ele>61</ele>
        <time>2018-07-25T09:08:52Z</time>
      </trkpt>
      <trkpt lat="63.852489672497" lon="20.343450908385">
        <ele>61</ele>
        <time>2018-07-25T09:08:58Z</time>
      </trkpt>
      <trkpt lat="63.852671895003" lon="20.34348066413">
        <ele>60.6</ele>
        <time>2018-07-25T09:09:04Z</time>
      </trkpt>
      <trkpt lat="63.852702991852" lon="20.343472114592">
        <ele>60.4</ele>
        <time>2018-07-25T09:09:05Z</time>
      </trkpt>
      <trkpt lat="63.852885633453" lon="20.343342698056">
        <ele>60</ele>
        <time>2018-07-25T09:09:11Z</time>
      </trkpt>
      <trkpt lat="63.853029383038" lon="20.343253430821">
        <ele>59.6</ele>
        <time>2018-07-25T09:09:17Z</time>
      </trkpt>
      <trkpt lat="63.853174473727" lon="20.343274301752">
        <ele>60</ele>
        <time>2018-07-25T09:09:23Z</time>
      </trkpt>
      <trkpt lat="63.85331922914" lon="20.343335489622">
        <ele>59.4</ele>
        <time>2018-07-25T09:09:28Z</time>
      </trkpt>
      <trkpt lat="63.853467504951" lon="20.343430624187">
        <ele>59.2</ele>
        <time>2018-07-25T09:09:34Z</time>
      </trkpt>
      <trkpt lat="63.853593149632" lon="20.34346222395">
        <ele>59.2</ele>
        <time>2018-07-25T09:09:40Z</time>
      </trkpt>
      <trkpt lat="63.853741425443" lon="20.343466750176">
        <ele>59.2</ele>
        <time>2018-07-25T09:09:46Z</time>
      </trkpt>
      <trkpt lat="63.853874781472" lon="20.343481753777">
        <ele>59</ele>
        <time>2018-07-25T09:09:52Z</time>
      </trkpt>
      <trkpt lat="63.854007215492" lon="20.343548306063">
        <ele>58.8</ele>
        <time>2018-07-25T09:09:58Z</time>
      </trkpt>
      <trkpt lat="63.854106876283" lon="20.343579151455">
        <ele>58.4</ele>
        <time>2018-07-25T09:10:02Z</time>
      </trkpt>
      <trkpt lat="63.854248027479" lon="20.343623491706">
        <ele>58.2</ele>
        <time>2018-07-25T09:10:08Z</time>
      </trkpt>
      <trkpt lat="63.854396470928" lon="20.343645619922">
        <ele>58.2</ele>
        <time>2018-07-25T09:10:14Z</time>
      </trkpt>
      <trkpt lat="63.854556565218" lon="20.343673866925">
        <ele>57.8</ele>
        <time>2018-07-25T09:10:20Z</time>
      </trkpt>
      <trkpt lat="63.854714564033" lon="20.343685350128">
        <ele>58</ele>
        <time>2018-07-25T09:10:26Z</time>
      </trkpt>
      <trkpt lat="63.854776673912" lon="20.343699850815">
        <ele>57.4</ele>
        <time>2018-07-25T09:10:29Z</time>
      </trkpt>
      <trkpt lat="63.854918579479" lon="20.343709322362">
        <ele>57</ele>
        <time>2018-07-25T09:10:35Z</time>
      </trkpt>
      <trkpt lat="63.855073896086" lon="20.343763804712">
        <ele>56.8</ele>
        <time>2018-07-25T09:10:41Z</time>
      </trkpt>
      <trkpt lat="63.855223177725" lon="20.34382180746">
        <ele>56.8</ele>
        <time>2018-07-25T09:10:47Z</time>
      </trkpt>
      <trkpt lat="63.85537028007" lon="20.343875954534">
        <ele>56.6</ele>
        <time>2018-07-25T09:10:53Z</time>
      </trkpt>
      <trkpt lat="63.855483603358" lon="20.343868662281">
        <ele>56.4</ele>
        <time>2018-07-25T09:10:58Z</time>
      </trkpt>
      <trkpt lat="63.855573457326" lon="20.34391736112">
        <ele>56.2</ele>
        <time>2018-07-25T09:11:02Z</time>
      </trkpt>
      <trkpt lat="63.855727935743" lon="20.343939908431">
        <ele>56</ele>
        <time>2018-07-25T09:11:08Z</time>
      </trkpt>
      <trkpt lat="63.855865231265" lon="20.343945105209">
        <ele>56</ele>
        <time>2018-07-25T09:11:14Z</time>
      </trkpt>
      <trkpt lat="63.856046364124" lon="20.343994558419">
        <ele>55.6</ele>
        <time>2018-07-25T09:11:20Z</time>
      </trkpt>
      <trkpt lat="63.856212577201" lon="20.344022637784">
        <ele>55.6</ele>
        <time>2018-07-25T09:11:26Z</time>
      </trkpt>
      <trkpt lat="63.856378538821" lon="20.344067648587">
        <ele>55.6</ele>
        <time>2018-07-25T09:11:32Z</time>
      </trkpt>
      <trkpt lat="63.856541566776" lon="20.344117017978">
        <ele>55.8</ele>
        <time>2018-07-25T09:11:38Z</time>
      </trkpt>
      <trkpt lat="63.856708701862" lon="20.344158256926">
        <ele>55.6</ele>
        <time>2018-07-25T09:11:44Z</time>
      </trkpt>
      <trkpt lat="63.856857145311" lon="20.344199579693">
        <ele>55.6</ele>
        <time>2018-07-25T09:11:50Z</time>
      </trkpt>
      <trkpt lat="63.857002906552" lon="20.344231179456">
        <ele>55.6</ele>
        <time>2018-07-25T09:11:56Z</time>
      </trkpt>
      <trkpt lat="63.857064513517" lon="20.344240818641">
        <ele>55.2</ele>
        <time>2018-07-25T09:11:58Z</time>
      </trkpt>
      <trkpt lat="63.857219411029" lon="20.344275603526">
        <ele>55</ele>
        <time>2018-07-25T09:12:04Z</time>
      </trkpt>
      <trkpt lat="63.857358634388" lon="20.344313741171">
        <ele>54.6</ele>
        <time>2018-07-25T09:12:10Z</time>
      </trkpt>
      <trkpt lat="63.857524596008" lon="20.344322961261">
        <ele>54.6</ele>
        <time>2018-07-25T09:12:16Z</time>
      </trkpt>
      <trkpt lat="63.857704220125" lon="20.344310723687">
        <ele>54.4</ele>
        <time>2018-07-25T09:12:22Z</time>
      </trkpt>
      <trkpt lat="63.857731293662" lon="20.344289685118">
        <ele>54.2</ele>
        <time>2018-07-25T09:12:23Z</time>
      </trkpt>
      <trkpt lat="63.857897339101" lon="20.344303599072">
        <ele>54.2</ele>
        <time>2018-07-25T09:12:29Z</time>
      </trkpt>
      <trkpt lat="63.858056511382" lon="20.344326230202">
        <ele>53.8</ele>
        <time>2018-07-25T09:12:35Z</time>
      </trkpt>
      <trkpt lat="63.858178048932" lon="20.344323547994">
        <ele>53.6</ele>
        <time>2018-07-25T09:12:41Z</time>
      </trkpt>
      <trkpt lat="63.858324816001" lon="20.344370654272">
        <ele>53.8</ele>
        <time>2018-07-25T09:12:47Z</time>
      </trkpt>
      <trkpt lat="63.858493878924" lon="20.344398230723">
        <ele>53.6</ele>
        <time>2018-07-25T09:12:53Z</time>
      </trkpt>
      <trkpt lat="63.858662271295" lon="20.344464531552">
        <ele>53.8</ele>
        <time>2018-07-25T09:12:59Z</time>
      </trkpt>
      <trkpt lat="63.858859162126" lon="20.34446637557">
        <ele>53.8</ele>
        <time>2018-07-25T09:13:07Z</time>
      </trkpt>
      <trkpt lat="63.858910543173" lon="20.344243165573">
        <ele>53.2</ele>
        <time>2018-07-25T09:13:12Z</time>
      </trkpt>
      <trkpt lat="63.858935688873" lon="20.34396765252">
        <ele>52.8</ele>
        <time>2018-07-25T09:13:18Z</time>
      </trkpt>
      <trkpt lat="63.858957481813" lon="20.34372457742">
        <ele>53.2</ele>
        <time>2018-07-25T09:13:24Z</time>
      </trkpt>
      <trkpt lat="63.858970725215" lon="20.343429199264">
        <ele>53.2</ele>
        <time>2018-07-25T09:13:30Z</time>
      </trkpt>
      <trkpt lat="63.858981454047" lon="20.343100461146">
        <ele>53.2</ele>
        <time>2018-07-25T09:13:36Z</time>
      </trkpt>
      <trkpt lat="63.858993691621" lon="20.342765185146">
        <ele>53.4</ele>
        <time>2018-07-25T09:13:42Z</time>
      </trkpt>
      <trkpt lat="63.858985896454" lon="20.342369140371">
        <ele>54</ele>
        <time>2018-07-25T09:13:48Z</time>
      </trkpt>
      <trkpt lat="63.858999894227" lon="20.341993212156">
        <ele>53.8</ele>
        <time>2018-07-25T09:13:54Z</time>
      </trkpt>
      <trkpt lat="63.859156803395" lon="20.341973514691">
        <ele>53.8</ele>
        <time>2018-07-25T09:14:00Z</time>
      </trkpt>
      <trkpt lat="63.859300301523" lon="20.342100668114">
        <ele>53.2</ele>
        <time>2018-07-25T09:14:06Z</time>
      </trkpt>
      <trkpt lat="63.859487050255" lon="20.34209765063">
        <ele>53</ele>
        <time>2018-07-25T09:14:12Z</time>
      </trkpt>
      <trkpt lat="63.85964756364" lon="20.342080216278">
        <ele>52.4</ele>
        <time>2018-07-25T09:14:18Z</time>
      </trkpt>
      <trkpt lat="63.859805227179" lon="20.3421253109">
        <ele>52.4</ele>
        <time>2018-07-25T09:14:24Z</time>
      </trkpt>
      <trkpt lat="63.859880245184" lon="20.342179290336">
        <ele>52</ele>
        <time>2018-07-25T09:14:27Z</time>
      </trkpt>
      <trkpt lat="63.860030951746" lon="20.342281633335">
        <ele>51.6</ele>
        <time>2018-07-25T09:14:33Z</time>
      </trkpt>
      <trkpt lat="63.86017813791" lon="20.342371990217">
        <ele>51.8</ele>
        <time>2018-07-25T09:14:39Z</time>
      </trkpt>
      <trkpt lat="63.860330520852" lon="20.342475422863">
        <ele>51.4</ele>
        <time>2018-07-25T09:14:45Z</time>
      </trkpt>
      <trkpt lat="63.860478293749" lon="20.342559912415">
        <ele>51.6</ele>
        <time>2018-07-25T09:14:51Z</time>
      </trkpt>
      <trkpt lat="63.86060477662" lon="20.34261397567">
        <ele>51</ele>
        <time>2018-07-25T09:14:56Z</time>
      </trkpt>
      <trkpt lat="63.86075900358" lon="20.342669044753">
        <ele>51</ele>
        <time>2018-07-25T09:15:02Z</time>
      </trkpt>
      <trkpt lat="63.860919516965" lon="20.342699135774">
        <ele>50.6</ele>
        <time>2018-07-25T09:15:08Z</time>
      </trkpt>
      <trkpt lat="63.861064859111" lon="20.342691256788">
        <ele>50.6</ele>
        <time>2018-07-25T09:15:14Z</time>
      </trkpt>
      <trkpt lat="63.861226462143" lon="20.34274221874">
        <ele>50</ele>
        <time>2018-07-25T09:15:20Z</time>
      </trkpt>
      <trkpt lat="63.861389238641" lon="20.342758898721">
        <ele>50</ele>
        <time>2018-07-25T09:15:26Z</time>
      </trkpt>
      <trkpt lat="63.861415390169" lon="20.342767029164">
        <ele>50</ele>
        <time>2018-07-25T09:15:27Z</time>
      </trkpt>
      <trkpt lat="63.861562324876" lon="20.342856715494">
        <ele>49.8</ele>
        <time>2018-07-25T09:15:33Z</time>
      </trkpt>
      <trkpt lat="63.861710935963" lon="20.342887644705">
        <ele>49.8</ele>
        <time>2018-07-25T09:15:39Z</time>
      </trkpt>
      <trkpt lat="63.861874718289" lon="20.342904659962">
        <ele>49.2</ele>
        <time>2018-07-25T09:15:45Z</time>
      </trkpt>
      <trkpt lat="63.862040512271" lon="20.342960902511">
        <ele>48.8</ele>
        <time>2018-07-25T09:15:51Z</time>
      </trkpt>
      <trkpt lat="63.862182082562" lon="20.343003314925">
        <ele>48.8</ele>
        <time>2018-07-25T09:15:57Z</time>
      </trkpt>
      <trkpt lat="63.862330777468" lon="20.343028544444">
        <ele>48.4</ele>
        <time>2018-07-25T09:16:03Z</time>
      </trkpt>
      <trkpt lat="63.862492799595" lon="20.343050253565">
        <ele>48</ele>
        <time>2018-07-25T09:16:09Z</time>
      </trkpt>
      <trkpt lat="63.862645601632" lon="20.343081098957">
        <ele>48.2</ele>
        <time>2018-07-25T09:16:15Z</time>
      </trkpt>
      <trkpt lat="63.862702095638" lon="20.34308839121">
        <ele>47.6</ele>
        <time>2018-07-25T09:16:17Z</time>
      </trkpt>
      <trkpt lat="63.862850874363" lon="20.343078835844">
        <ele>47</ele>
        <time>2018-07-25T09:16:23Z</time>
      </trkpt>
      <trkpt lat="63.862994121034" lon="20.342978420682">
        <ele>46.6</ele>
        <time>2018-07-25T09:16:29Z</time>
      </trkpt>
      <trkpt lat="63.863131500375" lon="20.342855039114">
        <ele>47</ele>
        <time>2018-07-25T09:16:35Z</time>
      </trkpt>
      <trkpt lat="63.863236106487" lon="20.342719755248">
        <ele>46.6</ele>
        <time>2018-07-25T09:16:41Z</time>
      </trkpt>
      <trkpt lat="63.863247505871" lon="20.342690586236">
        <ele>46.8</ele>
        <time>2018-07-25T09:16:42Z</time>
      </trkpt>
      <trkpt lat="63.863237028496" lon="20.342417252477">
        <ele>46.8</ele>
        <time>2018-07-25T09:16:48Z</time>
      </trkpt>
      <trkpt lat="63.863193610254" lon="20.342173255368">
        <ele>47</ele>
        <time>2018-07-25T09:16:54Z</time>
      </trkpt>
      <trkpt lat="63.863169470382" lon="20.341865807276">
        <ele>47</ele>
        <time>2018-07-25T09:17:00Z</time>
      </trkpt>
      <trkpt lat="63.863175337712" lon="20.341582331418">
        <ele>47.4</ele>
        <time>2018-07-25T09:17:06Z</time>
      </trkpt>
      <trkpt lat="63.863220013239" lon="20.341253006567">
        <ele>47.6</ele>
        <time>2018-07-25T09:17:12Z</time>
      </trkpt>
      <trkpt lat="63.863232418451" lon="20.341196177285">
        <ele>47.8</ele>
        <time>2018-07-25T09:17:13Z</time>
      </trkpt>
      <trkpt lat="63.863328307387" lon="20.340932398892">
        <ele>48.4</ele>
        <time>2018-07-25T09:17:19Z</time>
      </trkpt>
      <trkpt lat="63.863405001772" lon="20.340673230544">
        <ele>48.8</ele>
        <time>2018-07-25T09:17:25Z</time>
      </trkpt>
      <trkpt lat="63.863459148846" lon="20.340405931753">
        <ele>49.4</ele>
        <time>2018-07-25T09:17:31Z</time>
      </trkpt>
      <trkpt lat="63.863490413333" lon="20.340105775914">
        <ele>49.6</ele>
        <time>2018-07-25T09:17:37Z</time>
      </trkpt>
      <trkpt lat="63.863493011722" lon="20.340030506452">
        <ele>49.8</ele>
        <time>2018-07-25T09:17:38Z</time>
      </trkpt>
      <trkpt lat="63.863512876825" lon="20.339679221023">
        <ele>50.2</ele>
        <time>2018-07-25T09:17:44Z</time>
      </trkpt>
      <trkpt lat="63.863519917621" lon="20.339430027136">
        <ele>50.8</ele>
        <time>2018-07-25T09:17:48Z</time>
      </trkpt>
      <trkpt lat="63.863536513783" lon="20.339089219082">
        <ele>50.8</ele>
        <time>2018-07-25T09:17:54Z</time>
      </trkpt>
      <trkpt lat="63.863555875972" lon="20.338763414629">
        <ele>51</ele>
        <time>2018-07-25T09:18:00Z</time>
      </trkpt>
      <trkpt lat="63.863571550125" lon="20.338428893">
        <ele>51</ele>
        <time>2018-07-25T09:18:06Z</time>
      </trkpt>
      <trkpt lat="63.863603233707" lon="20.338124546211">
        <ele>51</ele>
        <time>2018-07-25T09:18:12Z</time>
      </trkpt>
      <trkpt lat="63.863687974716" lon="20.337819445051">
        <ele>51.2</ele>
        <time>2018-07-25T09:18:18Z</time>
      </trkpt>
      <trkpt lat="63.863733991347" lon="20.337501435765">
        <ele>51.4</ele>
        <time>2018-07-25T09:18:24Z</time>
      </trkpt>
      <trkpt lat="63.86374044541" lon="20.337125675188">
        <ele>51.2</ele>
        <time>2018-07-25T09:18:30Z</time>
      </trkpt>
      <trkpt lat="63.86375385645" lon="20.33674496929">
        <ele>51.2</ele>
        <time>2018-07-25T09:18:36Z</time>
      </trkpt>
      <trkpt lat="63.863762825083" lon="20.336467779857">
        <ele>51.8</ele>
        <time>2018-07-25T09:18:42Z</time>
      </trkpt>
      <trkpt lat="63.863764250006" lon="20.336416734086">
        <ele>52</ele>
        <time>2018-07-25T09:18:43Z</time>
      </trkpt>
      <trkpt lat="63.863781349082" lon="20.336071986539">
        <ele>51.8</ele>
        <time>2018-07-25T09:18:49Z</time>
      </trkpt>
      <trkpt lat="63.863756706296" lon="20.335740901489">
        <ele>51.4</ele>
        <time>2018-07-25T09:18:55Z</time>
      </trkpt>
      <trkpt lat="63.863677245884" lon="20.335140422173">
        <ele>51</ele>
        <time>2018-07-25T09:19:07Z</time>
      </trkpt>
      <trkpt lat="63.863642544818" lon="20.334810259132">
        <ele>51.6</ele>
        <time>2018-07-25T09:19:13Z</time>
      </trkpt>
      <trkpt lat="63.863600132404" lon="20.334445981758">
        <ele>51.4</ele>
        <time>2018-07-25T09:19:19Z</time>
      </trkpt>
      <trkpt lat="63.863622428258" lon="20.334117327459">
        <ele>52.2</ele>
        <time>2018-07-25T09:19:25Z</time>
      </trkpt>
      <trkpt lat="63.86376140016" lon="20.333918341153">
        <ele>52.8</ele>
        <time>2018-07-25T09:19:31Z</time>
      </trkpt>
      <trkpt lat="63.86383851364" lon="20.333720444494">
        <ele>52.2</ele>
        <time>2018-07-25T09:19:37Z</time>
      </trkpt>
      <trkpt lat="63.863797023235" lon="20.333462198155">
        <ele>51.4</ele>
        <time>2018-07-25T09:19:43Z</time>
      </trkpt>
      <trkpt lat="63.863728543112" lon="20.33320361654">
        <ele>51</ele>
        <time>2018-07-25T09:19:49Z</time>
      </trkpt>
      <trkpt lat="63.863679173721" lon="20.333085096474">
        <ele>50.8</ele>
        <time>2018-07-25T09:19:52Z</time>
      </trkpt>
      <trkpt lat="63.863567610632" lon="20.332987866434">
        <ele>50.8</ele>
        <time>2018-07-25T09:19:58Z</time>
      </trkpt>
      <trkpt lat="63.863418245174" lon="20.332917207017">
        <ele>50.8</ele>
        <time>2018-07-25T09:20:04Z</time>
      </trkpt>
      <trkpt lat="63.86324339874" lon="20.332900275579">
        <ele>50.4</ele>
        <time>2018-07-25T09:20:10Z</time>
      </trkpt>
      <trkpt lat="63.863082130984" lon="20.332881667761">
        <ele>50.6</ele>
        <time>2018-07-25T09:20:16Z</time>
      </trkpt>
      <trkpt lat="63.862895717528" lon="20.332857360251">
        <ele>50.6</ele>
        <time>2018-07-25T09:20:22Z</time>
      </trkpt>
      <trkpt lat="63.862723385664" lon="20.332822575366">
        <ele>51</ele>
        <time>2018-07-25T09:20:28Z</time>
      </trkpt>
      <trkpt lat="63.862571589455" lon="20.332847134333">
        <ele>51</ele>
        <time>2018-07-25T09:20:34Z</time>
      </trkpt>
      <trkpt lat="63.862443681661" lon="20.332839171528">
        <ele>51</ele>
        <time>2018-07-25T09:20:40Z</time>
      </trkpt>
      <trkpt lat="63.862376542642" lon="20.332803883729">
        <ele>51.4</ele>
        <time>2018-07-25T09:20:46Z</time>
      </trkpt>
      <trkpt lat="63.862269338141" lon="20.332753089415">
        <ele>51.8</ele>
        <time>2018-07-25T09:20:52Z</time>
      </trkpt>
      <trkpt lat="63.862102957426" lon="20.332679244876">
        <ele>51.6</ele>
        <time>2018-07-25T09:20:58Z</time>
      </trkpt>
      <trkpt lat="63.861955771262" lon="20.332616129169">
        <ele>51.8</ele>
        <time>2018-07-25T09:21:03Z</time>
      </trkpt>
      <trkpt lat="63.861768687254" lon="20.332525185554">
        <ele>52</ele>
        <time>2018-07-25T09:21:09Z</time>
      </trkpt>
      <trkpt lat="63.861598618503" lon="20.332443210572">
        <ele>52</ele>
        <time>2018-07-25T09:21:15Z</time>
      </trkpt>
      <trkpt lat="63.861446151742" lon="20.332357631373">
        <ele>52</ele>
        <time>2018-07-25T09:21:21Z</time>
      </trkpt>
      <trkpt lat="63.861290918954" lon="20.332305328317">
        <ele>52.2</ele>
        <time>2018-07-25T09:21:27Z</time>
      </trkpt>
      <trkpt lat="63.861154461622" lon="20.332253192899">
        <ele>52</ele>
        <time>2018-07-25T09:21:33Z</time>
      </trkpt>
      <trkpt lat="63.860996630445" lon="20.332228633932">
        <ele>52</ele>
        <time>2018-07-25T09:21:39Z</time>
      </trkpt>
      <trkpt lat="63.860851036842" lon="20.332204996974">
        <ele>52.2</ele>
        <time>2018-07-25T09:21:45Z</time>
      </trkpt>
      <trkpt lat="63.860719441012" lon="20.332147413321">
        <ele>52.6</ele>
        <time>2018-07-25T09:21:51Z</time>
      </trkpt>
      <trkpt lat="63.860586755535" lon="20.332096032274">
        <ele>52.6</ele>
        <time>2018-07-25T09:21:57Z</time>
      </trkpt>
      <trkpt lat="63.860463038691" lon="20.331993689275">
        <ele>52.6</ele>
        <time>2018-07-25T09:22:03Z</time>
      </trkpt>
      <trkpt lat="63.860337477829" lon="20.331910037913">
        <ele>52.8</ele>
        <time>2018-07-25T09:22:09Z</time>
      </trkpt>
      <trkpt lat="63.86019322533" lon="20.331837618297">
        <ele>52.6</ele>
        <time>2018-07-25T09:22:15Z</time>
      </trkpt>
      <trkpt lat="63.860099683326" lon="20.331792439856">
        <ele>52.8</ele>
        <time>2018-07-25T09:22:19Z</time>
      </trkpt>
      <trkpt lat="63.859924920711" lon="20.331779028816">
        <ele>52.6</ele>
        <time>2018-07-25T09:22:25Z</time>
      </trkpt>
      <trkpt lat="63.859763066222" lon="20.33180551562">
        <ele>53</ele>
        <time>2018-07-25T09:22:31Z</time>
      </trkpt>
      <trkpt lat="63.859600205905" lon="20.331839629953">
        <ele>53.2</ele>
        <time>2018-07-25T09:22:37Z</time>
      </trkpt>
      <trkpt lat="63.859446649497" lon="20.331853963002">
        <ele>52.6</ele>
        <time>2018-07-25T09:22:43Z</time>
      </trkpt>
      <trkpt lat="63.859306336491" lon="20.331814651891">
        <ele>52.8</ele>
        <time>2018-07-25T09:22:49Z</time>
      </trkpt>
      <trkpt lat="63.859169040969" lon="20.331746339406">
        <ele>53</ele>
        <time>2018-07-25T09:22:55Z</time>
      </trkpt>
      <trkpt lat="63.859057896975" lon="20.331684145708">
        <ele>52.8</ele>
        <time>2018-07-25T09:23:01Z</time>
      </trkpt>
      <trkpt lat="63.858924624765" lon="20.331753715478">
        <ele>53</ele>
        <time>2018-07-25T09:23:07Z</time>
      </trkpt>
      <trkpt lat="63.858829406381" lon="20.331884892213">
        <ele>53.4</ele>
        <time>2018-07-25T09:23:13Z</time>
      </trkpt>
      <trkpt lat="63.858715161084" lon="20.331999305148">
        <ele>53.6</ele>
        <time>2018-07-25T09:23:19Z</time>
      </trkpt>
      <trkpt lat="63.858601670158" lon="20.332079855207">
        <ele>54</ele>
        <time>2018-07-25T09:23:24Z</time>
      </trkpt>
      <trkpt lat="63.858468817043" lon="20.332175911781">
        <ele>54.6</ele>
        <time>2018-07-25T09:23:30Z</time>
      </trkpt>
      <trkpt lat="63.858343591457" lon="20.332332401854">
        <ele>54.6</ele>
        <time>2018-07-25T09:23:36Z</time>
      </trkpt>
      <trkpt lat="63.858283912329" lon="20.332401636348">
        <ele>55</ele>
        <time>2018-07-25T09:23:39Z</time>
      </trkpt>
      <trkpt lat="63.858184251538" lon="20.332539602422">
        <ele>55.6</ele>
        <time>2018-07-25T09:23:45Z</time>
      </trkpt>
      <trkpt lat="63.858098756158" lon="20.332717969254">
        <ele>56</ele>
        <time>2018-07-25T09:23:50Z</time>
      </trkpt>
      <trkpt lat="63.857955425668" lon="20.332944029097">
        <ele>56.6</ele>
        <time>2018-07-25T09:23:56Z</time>
      </trkpt>
      <trkpt lat="63.857867667175" lon="20.333083000999">
        <ele>57</ele>
        <time>2018-07-25T09:24:02Z</time>
      </trkpt>
      <trkpt lat="63.857870097926" lon="20.33313237039">
        <ele>57.2</ele>
        <time>2018-07-25T09:24:03Z</time>
      </trkpt>
      <trkpt lat="63.857677062769" lon="20.333238317606">
        <ele>57.6</ele>
        <time>2018-07-25T09:24:09Z</time>
      </trkpt>
      <trkpt lat="63.857487883286" lon="20.333344600098">
        <ele>58</ele>
        <time>2018-07-25T09:24:15Z</time>
      </trkpt>
      <trkpt lat="63.857439687361" lon="20.333387934521">
        <ele>58.2</ele>
        <time>2018-07-25T09:24:17Z</time>
      </trkpt>
      <trkpt lat="63.857304235857" lon="20.333391119643">
        <ele>58.2</ele>
        <time>2018-07-25T09:24:23Z</time>
      </trkpt>
      <trkpt lat="63.857189236189" lon="20.333096579677">
        <ele>57.4</ele>
        <time>2018-07-25T09:24:29Z</time>
      </trkpt>
      <trkpt lat="63.857116146021" lon="20.332893067145">
        <ele>57</ele>
        <time>2018-07-25T09:24:33Z</time>
      </trkpt>
      <trkpt lat="63.857003493285" lon="20.332608920735">
        <ele>56.6</ele>
        <time>2018-07-25T09:24:39Z</time>
      </trkpt>
      <trkpt lat="63.856905173598" lon="20.332325947791">
        <ele>56.4</ele>
        <time>2018-07-25T09:24:45Z</time>
      </trkpt>
      <trkpt lat="63.856848344316" lon="20.332179013084">
        <ele>56</ele>
        <time>2018-07-25T09:24:49Z</time>
      </trkpt>
      <trkpt lat="63.856725884757" lon="20.331980026778">
        <ele>56.2</ele>
        <time>2018-07-25T09:24:55Z</time>
      </trkpt>
      <trkpt lat="63.856630498735" lon="20.331711554521">
        <ele>56.2</ele>
        <time>2018-07-25T09:25:01Z</time>
      </trkpt>
      <trkpt lat="63.856555983644" lon="20.33124728108">
        <ele>55.8</ele>
        <time>2018-07-25T09:25:09Z</time>
      </trkpt>
      <trkpt lat="63.856507200986" lon="20.330898845497">
        <ele>55.8</ele>
        <time>2018-07-25T09:25:15Z</time>
      </trkpt>
      <trkpt lat="63.856427908212" lon="20.330605814273">
        <ele>55.6</ele>
        <time>2018-07-25T09:25:21Z</time>
      </trkpt>
      <trkpt lat="63.85642891404" lon="20.330497855401">
        <ele>55.6</ele>
        <time>2018-07-25T09:25:23Z</time>
      </trkpt>
      <trkpt lat="63.856455568482" lon="20.330132236923">
        <ele>55.4</ele>
        <time>2018-07-25T09:25:29Z</time>
      </trkpt>
      <trkpt lat="63.856449282057" lon="20.329770222662">
        <ele>55.2</ele>
        <time>2018-07-25T09:25:35Z</time>
      </trkpt>
      <trkpt lat="63.856469566255" lon="20.329403765994">
        <ele>55</ele>
        <time>2018-07-25T09:25:41Z</time>
      </trkpt>
      <trkpt lat="63.856487084426" lon="20.329361772675">
        <ele>55</ele>
        <time>2018-07-25T09:25:42Z</time>
      </trkpt>
      <trkpt lat="63.856635024961" lon="20.3292758582">
        <ele>55.4</ele>
        <time>2018-07-25T09:25:48Z</time>
      </trkpt>
      <trkpt lat="63.85678765936" lon="20.32920461205">
        <ele>54.8</ele>
        <time>2018-07-25T09:25:54Z</time>
      </trkpt>
      <trkpt lat="63.856938952655" lon="20.329170497717">
        <ele>54.6</ele>
        <time>2018-07-25T09:26:00Z</time>
      </trkpt>
      <trkpt lat="63.857077254005" lon="20.329154655926">
        <ele>54.6</ele>
        <time>2018-07-25T09:26:06Z</time>
      </trkpt>
      <trkpt lat="63.857173562036" lon="20.329088774192">
        <ele>54.8</ele>
        <time>2018-07-25T09:26:10Z</time>
      </trkpt>
      <trkpt lat="63.857326699349" lon="20.329025742304">
        <ele>54</ele>
        <time>2018-07-25T09:26:16Z</time>
      </trkpt>
      <trkpt lat="63.857431054004" lon="20.328990370686">
        <ele>54</ele>
        <time>2018-07-25T09:26:20Z</time>
      </trkpt>
      <trkpt lat="63.857580168005" lon="20.328926668246">
        <ele>54</ele>
        <time>2018-07-25T09:26:26Z</time>
      </trkpt>
      <trkpt lat="63.857715787147" lon="20.328818038822">
        <ele>53.8</ele>
        <time>2018-07-25T09:26:32Z</time>
      </trkpt>
      <trkpt lat="63.857848388805" lon="20.328681078576">
        <ele>54</ele>
        <time>2018-07-25T09:26:38Z</time>
      </trkpt>
      <trkpt lat="63.857965651586" lon="20.328546129986">
        <ele>53.8</ele>
        <time>2018-07-25T09:26:44Z</time>
      </trkpt>
      <trkpt lat="63.858089284611" lon="20.328374887769">
        <ele>53.6</ele>
        <time>2018-07-25T09:26:50Z</time>
      </trkpt>
      <trkpt lat="63.858219036423" lon="20.32819291672">
        <ele>53.4</ele>
        <time>2018-07-25T09:26:56Z</time>
      </trkpt>
      <trkpt lat="63.858321882336" lon="20.32798253103">
        <ele>53.6</ele>
        <time>2018-07-25T09:27:02Z</time>
      </trkpt>
      <trkpt lat="63.858430930855" lon="20.327752112599">
        <ele>53.4</ele>
        <time>2018-07-25T09:27:08Z</time>
      </trkpt>
      <trkpt lat="63.858513911665" lon="20.327461931221">
        <ele>53.2</ele>
        <time>2018-07-25T09:27:14Z</time>
      </trkpt>
      <trkpt lat="63.858579541942" lon="20.327129421248">
        <ele>52.8</ele>
        <time>2018-07-25T09:27:20Z</time>
      </trkpt>
      <trkpt lat="63.858648273522" lon="20.326822643708">
        <ele>52.6</ele>
        <time>2018-07-25T09:27:26Z</time>
      </trkpt>
      <trkpt lat="63.858718765301" lon="20.326535731271">
        <ele>52.6</ele>
        <time>2018-07-25T09:27:32Z</time>
      </trkpt>
      <trkpt lat="63.858797219885" lon="20.326240353115">
        <ele>52.4</ele>
        <time>2018-07-25T09:27:38Z</time>
      </trkpt>
      <trkpt lat="63.858871148243" lon="20.325936257783">
        <ele>52</ele>
        <time>2018-07-25T09:27:44Z</time>
      </trkpt>
      <trkpt lat="63.858932084656" lon="20.325644064749">
        <ele>52</ele>
        <time>2018-07-25T09:27:50Z</time>
      </trkpt>
      <trkpt lat="63.858969132654" lon="20.325299568659">
        <ele>52.2</ele>
        <time>2018-07-25T09:27:56Z</time>
      </trkpt>
      <trkpt lat="63.858996792924" lon="20.324947109764">
        <ele>52.2</ele>
        <time>2018-07-25T09:28:02Z</time>
      </trkpt>
      <trkpt lat="63.859016825665" lon="20.32476891057">
        <ele>51.8</ele>
        <time>2018-07-25T09:28:05Z</time>
      </trkpt>
      <trkpt lat="63.859076001879" lon="20.324450985103">
        <ele>51.6</ele>
        <time>2018-07-25T09:28:11Z</time>
      </trkpt>
      <trkpt lat="63.859134339903" lon="20.324158289155">
        <ele>52.4</ele>
        <time>2018-07-25T09:28:17Z</time>
      </trkpt>
      <trkpt lat="63.859183876932" lon="20.323901467739">
        <ele>52.6</ele>
        <time>2018-07-25T09:28:23Z</time>
      </trkpt>
      <trkpt lat="63.859219835283" lon="20.323567449024">
        <ele>52.4</ele>
        <time>2018-07-25T09:28:29Z</time>
      </trkpt>
      <trkpt lat="63.859246992639" lon="20.32322999373">
        <ele>52.8</ele>
        <time>2018-07-25T09:28:35Z</time>
      </trkpt>
      <trkpt lat="63.859272222158" lon="20.32292908352">
        <ele>53</ele>
        <time>2018-07-25T09:28:41Z</time>
      </trkpt>
      <trkpt lat="63.859293344546" lon="20.32263236426">
        <ele>53.2</ele>
        <time>2018-07-25T09:28:47Z</time>
      </trkpt>
      <trkpt lat="63.859294937107" lon="20.322293986957">
        <ele>53.6</ele>
        <time>2018-07-25T09:28:53Z</time>
      </trkpt>
      <trkpt lat="63.859313712563" lon="20.321959549147">
        <ele>53.6</ele>
        <time>2018-07-25T09:28:59Z</time>
      </trkpt>
      <trkpt lat="63.859318825522" lon="20.321548919866">
        <ele>53.6</ele>
        <time>2018-07-25T09:29:05Z</time>
      </trkpt>
      <trkpt lat="63.859333326209" lon="20.321237448462">
        <ele>54</ele>
        <time>2018-07-25T09:29:10Z</time>
      </trkpt>
      <trkpt lat="63.85934832981" lon="20.32091826571">
        <ele>52.8</ele>
        <time>2018-07-25T09:29:16Z</time>
      </trkpt>
      <trkpt lat="63.85936509361" lon="20.320574691629">
        <ele>52</ele>
        <time>2018-07-25T09:29:22Z</time>
      </trkpt>
      <trkpt lat="63.859370709483" lon="20.320450807147">
        <ele>51.8</ele>
        <time>2018-07-25T09:29:24Z</time>
      </trkpt>
      <trkpt lat="63.859351850208" lon="20.320108406532">
        <ele>51.6</ele>
        <time>2018-07-25T09:29:30Z</time>
      </trkpt>
      <trkpt lat="63.859361824669" lon="20.319760557682">
        <ele>51.4</ele>
        <time>2018-07-25T09:29:36Z</time>
      </trkpt>
      <trkpt lat="63.859348832724" lon="20.319434837048">
        <ele>51.8</ele>
        <time>2018-07-25T09:29:42Z</time>
      </trkpt>
      <trkpt lat="63.859293763641" lon="20.319126299309">
        <ele>52</ele>
        <time>2018-07-25T09:29:48Z</time>
      </trkpt>
      <trkpt lat="63.859207094795" lon="20.318864951667">
        <ele>51.4</ele>
        <time>2018-07-25T09:29:54Z</time>
      </trkpt>
      <trkpt lat="63.85915219335" lon="20.318564795828">
        <ele>51.2</ele>
        <time>2018-07-25T09:30:00Z</time>
      </trkpt>
      <trkpt lat="63.859130735686" lon="20.318279308314">
        <ele>50.8</ele>
        <time>2018-07-25T09:30:05Z</time>
      </trkpt>
      <trkpt lat="63.859082958856" lon="20.317913270741">
        <ele>50.6</ele>
        <time>2018-07-25T09:30:11Z</time>
      </trkpt>
      <trkpt lat="63.859042055184" lon="20.317617724947">
        <ele>49.6</ele>
        <time>2018-07-25T09:30:16Z</time>
      </trkpt>
      <trkpt lat="63.859001235331" lon="20.317271636296">
        <ele>49.4</ele>
        <time>2018-07-25T09:30:22Z</time>
      </trkpt>
      <trkpt lat="63.858957900908" lon="20.316937114667">
        <ele>49</ele>
        <time>2018-07-25T09:30:28Z</time>
      </trkpt>
      <trkpt lat="63.858916745779" lon="20.316607286902">
        <ele>49.8</ele>
        <time>2018-07-25T09:30:34Z</time>
      </trkpt>
      <trkpt lat="63.858900903988" lon="20.316245691736">
        <ele>50.2</ele>
        <time>2018-07-25T09:30:40Z</time>
      </trkpt>
      <trkpt lat="63.858931581742" lon="20.315910164279">
        <ele>50.4</ele>
        <time>2018-07-25T09:30:46Z</time>
      </trkpt>
      <trkpt lat="63.858990925594" lon="20.315635657054">
        <ele>50.6</ele>
        <time>2018-07-25T09:30:52Z</time>
      </trkpt>
      <trkpt lat="63.859005258643" lon="20.315589472785">
        <ele>50.8</ele>
        <time>2018-07-25T09:30:53Z</time>
      </trkpt>
      <trkpt lat="63.859076504793" lon="20.31544656139">
        <ele>52</ele>
        <time>2018-07-25T09:30:57Z</time>
      </trkpt>
      <trkpt lat="63.859148756771" lon="20.315341368545">
        <ele>53.2</ele>
        <time>2018-07-25T09:31:01Z</time>
      </trkpt>
      <trkpt lat="63.859225367337" lon="20.315118996738">
        <ele>54.2</ele>
        <time>2018-07-25T09:31:07Z</time>
      </trkpt>
      <trkpt lat="63.859323603205" lon="20.314945407589">
        <ele>54.6</ele>
        <time>2018-07-25T09:31:13Z</time>
      </trkpt>
      <trkpt lat="63.859395100812" lon="20.314771231707">
        <ele>55.4</ele>
        <time>2018-07-25T09:31:18Z</time>
      </trkpt>
      <trkpt lat="63.859416642295" lon="20.314462358692">
        <ele>55.8</ele>
        <time>2018-07-25T09:31:24Z</time>
      </trkpt>
      <trkpt lat="63.859424102186" lon="20.314095231472">
        <ele>56</ele>
        <time>2018-07-25T09:31:30Z</time>
      </trkpt>
      <trkpt lat="63.859443548194" lon="20.313787112828">
        <ele>56</ele>
        <time>2018-07-25T09:31:36Z</time>
      </trkpt>
      <trkpt lat="63.859459473804" lon="20.313452758837">
        <ele>56</ele>
        <time>2018-07-25T09:31:42Z</time>
      </trkpt>
      <trkpt lat="63.859476656699" lon="20.313120416502">
        <ele>56</ele>
        <time>2018-07-25T09:31:48Z</time>
      </trkpt>
      <trkpt lat="63.859500377476" lon="20.312788074167">
        <ele>55.4</ele>
        <time>2018-07-25T09:31:54Z</time>
      </trkpt>
      <trkpt lat="63.859528373022" lon="20.312437543109">
        <ele>54.4</ele>
        <time>2018-07-25T09:32:00Z</time>
      </trkpt>
      <trkpt lat="63.859533402162" lon="20.312382222569">
        <ele>54.4</ele>
        <time>2018-07-25T09:32:01Z</time>
      </trkpt>
      <trkpt lat="63.859555781835" lon="20.312017358462">
        <ele>54.4</ele>
        <time>2018-07-25T09:32:07Z</time>
      </trkpt>
      <trkpt lat="63.85956542102" lon="20.311695325864">
        <ele>54.4</ele>
        <time>2018-07-25T09:32:13Z</time>
      </trkpt>
      <trkpt lat="63.859588555064" lon="20.311388548324">
        <ele>54.4</ele>
        <time>2018-07-25T09:32:19Z</time>
      </trkpt>
      <trkpt lat="63.859633817324" lon="20.311102976991">
        <ele>54.4</ele>
        <time>2018-07-25T09:32:25Z</time>
      </trkpt>
      <trkpt lat="63.859654352979" lon="20.310781112031">
        <ele>54.6</ele>
        <time>2018-07-25T09:32:31Z</time>
      </trkpt>
      <trkpt lat="63.859663908345" lon="20.310475507957">
        <ele>55</ele>
        <time>2018-07-25T09:32:37Z</time>
      </trkpt>
      <trkpt lat="63.859695172832" lon="20.31017015534">
        <ele>55</ele>
        <time>2018-07-25T09:32:43Z</time>
      </trkpt>
      <trkpt lat="63.85970791332" lon="20.310053730749">
        <ele>55.4</ele>
        <time>2018-07-25T09:32:45Z</time>
      </trkpt>
      <trkpt lat="63.859779494746" lon="20.309786515777">
        <ele>55.2</ele>
        <time>2018-07-25T09:32:51Z</time>
      </trkpt>
      <trkpt lat="63.859838251865" lon="20.309612339895">
        <ele>54.2</ele>
        <time>2018-07-25T09:32:55Z</time>
      </trkpt>
      <trkpt lat="63.859910000929" lon="20.309296006989">
        <ele>53.8</ele>
        <time>2018-07-25T09:33:01Z</time>
      </trkpt>
      <trkpt lat="63.859981330898" lon="20.309024517248">
        <ele>54.2</ele>
        <time>2018-07-25T09:33:07Z</time>
      </trkpt>
      <trkpt lat="63.860062886785" lon="20.308789237315">
        <ele>54</ele>
        <time>2018-07-25T09:33:13Z</time>
      </trkpt>
      <trkpt lat="63.860133127107" lon="20.308477598273">
        <ele>54</ele>
        <time>2018-07-25T09:33:19Z</time>
      </trkpt>
      <trkpt lat="63.860192638597" lon="20.308133605097">
        <ele>54.2</ele>
        <time>2018-07-25T09:33:25Z</time>
      </trkpt>
      <trkpt lat="63.860252988277" lon="20.307795730708">
        <ele>54.2</ele>
        <time>2018-07-25T09:33:31Z</time>
      </trkpt>
      <trkpt lat="63.860315265794" lon="20.307448887686">
        <ele>54.2</ele>
        <time>2018-07-25T09:33:37Z</time>
      </trkpt>
      <trkpt lat="63.860365724832" lon="20.307107576718">
        <ele>54.6</ele>
        <time>2018-07-25T09:33:43Z</time>
      </trkpt>
      <trkpt lat="63.860416770603" lon="20.306795434762">
        <ele>54.8</ele>
        <time>2018-07-25T09:33:49Z</time>
      </trkpt>
      <trkpt lat="63.860458596284" lon="20.306489746869">
        <ele>55</ele>
        <time>2018-07-25T09:33:55Z</time>
      </trkpt>
      <trkpt lat="63.860474940989" lon="20.306403916213">
        <ele>55.2</ele>
        <time>2018-07-25T09:33:57Z</time>
      </trkpt>
      <trkpt lat="63.860525232389" lon="20.306086996574">
        <ele>55.6</ele>
        <time>2018-07-25T09:34:03Z</time>
      </trkpt>
      <trkpt lat="63.860572673943" lon="20.305825062199">
        <ele>55.8</ele>
        <time>2018-07-25T09:34:09Z</time>
      </trkpt>
      <trkpt lat="63.860602094412" lon="20.305695729482">
        <ele>56.2</ele>
        <time>2018-07-25T09:34:12Z</time>
      </trkpt>
      <trkpt lat="63.860668898155" lon="20.305437818419">
        <ele>57</ele>
        <time>2018-07-25T09:34:18Z</time>
      </trkpt>
      <trkpt lat="63.860697396615" lon="20.305296751042">
        <ele>57.2</ele>
        <time>2018-07-25T09:34:21Z</time>
      </trkpt>
      <trkpt lat="63.860751627508" lon="20.304989219131">
        <ele>57.8</ele>
        <time>2018-07-25T09:34:27Z</time>
      </trkpt>
      <trkpt lat="63.860771073516" lon="20.304875560567">
        <ele>58.4</ele>
        <time>2018-07-25T09:34:29Z</time>
      </trkpt>
      <trkpt lat="63.860822873658" lon="20.304592671442">
        <ele>59.6</ele>
        <time>2018-07-25T09:34:35Z</time>
      </trkpt>
      <trkpt lat="63.860859754018" lon="20.304266866989">
        <ele>60</ele>
        <time>2018-07-25T09:34:41Z</time>
      </trkpt>
      <trkpt lat="63.860906441201" lon="20.303947768056">
        <ele>59.8</ele>
        <time>2018-07-25T09:34:47Z</time>
      </trkpt>
      <trkpt lat="63.860960336818" lon="20.303692203925">
        <ele>60.4</ele>
        <time>2018-07-25T09:34:53Z</time>
      </trkpt>
      <trkpt lat="63.860963019026" lon="20.303649791511">
        <ele>60.6</ele>
        <time>2018-07-25T09:34:54Z</time>
      </trkpt>
      <trkpt lat="63.860880708768" lon="20.303472514326">
        <ele>60.8</ele>
        <time>2018-07-25T09:35:00Z</time>
      </trkpt>
      <trkpt lat="63.860762691616" lon="20.303350725319">
        <ele>61</ele>
        <time>2018-07-25T09:35:06Z</time>
      </trkpt>
      <trkpt lat="63.860639226229" lon="20.303233546357">
        <ele>61</ele>
        <time>2018-07-25T09:35:12Z</time>
      </trkpt>
      <trkpt lat="63.860527579321" lon="20.303080492863">
        <ele>60.6</ele>
        <time>2018-07-25T09:35:18Z</time>
      </trkpt>
      <trkpt lat="63.86037846532" lon="20.302935402174">
        <ele>60.8</ele>
        <time>2018-07-25T09:35:24Z</time>
      </trkpt>
      <trkpt lat="63.860238990504" lon="20.302821995067">
        <ele>60.4</ele>
        <time>2018-07-25T09:35:30Z</time>
      </trkpt>
      <trkpt lat="63.860133127107" lon="20.302738008429">
        <ele>60.6</ele>
        <time>2018-07-25T09:35:36Z</time>
      </trkpt>
      <trkpt lat="63.860012260109" lon="20.302674138351">
        <ele>60.2</ele>
        <time>2018-07-25T09:35:42Z</time>
      </trkpt>
      <trkpt lat="63.859858619882" lon="20.302604317124">
        <ele>59.8</ele>
        <time>2018-07-25T09:35:48Z</time>
      </trkpt>
      <trkpt lat="63.859687629122" lon="20.302585876944">
        <ele>60.4</ele>
        <time>2018-07-25T09:35:54Z</time>
      </trkpt>
      <trkpt lat="63.859518314742" lon="20.302582188908">
        <ele>59.8</ele>
        <time>2018-07-25T09:36:00Z</time>
      </trkpt>
      <trkpt lat="63.859348748905" lon="20.302568107316">
        <ele>59.8</ele>
        <time>2018-07-25T09:36:06Z</time>
      </trkpt>
      <trkpt lat="63.859200473094" lon="20.302525527264">
        <ele>59.8</ele>
        <time>2018-07-25T09:36:12Z</time>
      </trkpt>
      <trkpt lat="63.859162670725" lon="20.302503985781">
        <ele>59.6</ele>
        <time>2018-07-25T09:36:14Z</time>
      </trkpt>
      <trkpt lat="63.859017328579" lon="20.302455873675">
        <ele>59.6</ele>
        <time>2018-07-25T09:36:20Z</time>
      </trkpt>
      <trkpt lat="63.85889067807" lon="20.302414634727">
        <ele>59.8</ele>
        <time>2018-07-25T09:36:26Z</time>
      </trkpt>
      <trkpt lat="63.858719435853" lon="20.302381526222">
        <ele>59.6</ele>
        <time>2018-07-25T09:36:32Z</time>
      </trkpt>
      <trkpt lat="63.858551378758" lon="20.302342131292">
        <ele>59.4</ele>
        <time>2018-07-25T09:36:38Z</time>
      </trkpt>
      <trkpt lat="63.858395894513" lon="20.302315309212">
        <ele>59.2</ele>
        <time>2018-07-25T09:36:44Z</time>
      </trkpt>
      <trkpt lat="63.858258431353" lon="20.302287146028">
        <ele>59.2</ele>
        <time>2018-07-25T09:36:50Z</time>
      </trkpt>
      <trkpt lat="63.858117363976" lon="20.302292510444">
        <ele>59</ele>
        <time>2018-07-25T09:36:56Z</time>
      </trkpt>
      <trkpt lat="63.857984259404" lon="20.302335844867">
        <ele>59.2</ele>
        <time>2018-07-25T09:37:02Z</time>
      </trkpt>
      <trkpt lat="63.857804132373" lon="20.302432320536">
        <ele>58.8</ele>
        <time>2018-07-25T09:37:08Z</time>
      </trkpt>
      <trkpt lat="63.857582682575" lon="20.302521084857">
        <ele>59.2</ele>
        <time>2018-07-25T09:37:16Z</time>
      </trkpt>
      <trkpt lat="63.857435161135" lon="20.30257280118">
        <ele>59</ele>
        <time>2018-07-25T09:37:22Z</time>
      </trkpt>
      <trkpt lat="63.857292585016" lon="20.302609765359">
        <ele>59</ele>
        <time>2018-07-25T09:37:28Z</time>
      </trkpt>
      <trkpt lat="63.85715227201" lon="20.302683777536">
        <ele>58.8</ele>
        <time>2018-07-25T09:37:34Z</time>
      </trkpt>
      <trkpt lat="63.85700894152" lon="20.302738008429">
        <ele>58.6</ele>
        <time>2018-07-25T09:37:40Z</time>
      </trkpt>
      <trkpt lat="63.856869885799" lon="20.302813194072">
        <ele>58.4</ele>
        <time>2018-07-25T09:37:46Z</time>
      </trkpt>
      <trkpt lat="63.856745833679" lon="20.302925092437">
        <ele>58.6</ele>
        <time>2018-07-25T09:37:52Z</time>
      </trkpt>
      <trkpt lat="63.856606107406" lon="20.303007486514">
        <ele>58.2</ele>
        <time>2018-07-25T09:37:58Z</time>
      </trkpt>
      <trkpt lat="63.856472248463" lon="20.303061801226">
        <ele>58.2</ele>
        <time>2018-07-25T09:38:04Z</time>
      </trkpt>
      <trkpt lat="63.856342915746" lon="20.303115696843">
        <ele>57.8</ele>
        <time>2018-07-25T09:38:10Z</time>
      </trkpt>
      <trkpt lat="63.856167231122" lon="20.303185350432">
        <ele>57.6</ele>
        <time>2018-07-25T09:38:16Z</time>
      </trkpt>
      <trkpt lat="63.856062289734" lon="20.303224158629">
        <ele>57.4</ele>
        <time>2018-07-25T09:38:20Z</time>
      </trkpt>
      <trkpt lat="63.855908817145" lon="20.303230277416">
        <ele>57.6</ele>
        <time>2018-07-25T09:38:26Z</time>
      </trkpt>
      <trkpt lat="63.855727600467" lon="20.303213932711">
        <ele>57</ele>
        <time>2018-07-25T09:38:32Z</time>
      </trkpt>
      <trkpt lat="63.855606398193" lon="20.303163389854">
        <ele>57.4</ele>
        <time>2018-07-25T09:38:38Z</time>
      </trkpt>
      <trkpt lat="63.855426690257" lon="20.303126258037">
        <ele>57.6</ele>
        <time>2018-07-25T09:38:44Z</time>
      </trkpt>
      <trkpt lat="63.855271289831" lon="20.303099771233">
        <ele>57</ele>
        <time>2018-07-25T09:38:50Z</time>
      </trkpt>
      <trkpt lat="63.855103568012" lon="20.303081833967">
        <ele>57</ele>
        <time>2018-07-25T09:38:56Z</time>
      </trkpt>
      <trkpt lat="63.855007930533" lon="20.303062555597">
        <ele>56.4</ele>
        <time>2018-07-25T09:39:00Z</time>
      </trkpt>
      <trkpt lat="63.854868371898" lon="20.303042690494">
        <ele>56.8</ele>
        <time>2018-07-25T09:39:06Z</time>
      </trkpt>
      <trkpt lat="63.854734261498" lon="20.303019807907">
        <ele>56.2</ele>
        <time>2018-07-25T09:39:12Z</time>
      </trkpt>
      <trkpt lat="63.854613310681" lon="20.302976976398">
        <ele>56.2</ele>
        <time>2018-07-25T09:39:18Z</time>
      </trkpt>
      <trkpt lat="63.854488336552" lon="20.302907993361">
        <ele>56.2</ele>
        <time>2018-07-25T09:39:24Z</time>
      </trkpt>
      <trkpt lat="63.854308460978" lon="20.302867676422">
        <ele>56.4</ele>
        <time>2018-07-25T09:39:30Z</time>
      </trkpt>
      <trkpt lat="63.85413646439" lon="20.302830376967">
        <ele>55.8</ele>
        <time>2018-07-25T09:39:36Z</time>
      </trkpt>
      <trkpt lat="63.853966814734" lon="20.302820821601">
        <ele>56</ele>
        <time>2018-07-25T09:39:42Z</time>
      </trkpt>
      <trkpt lat="63.853788112626" lon="20.302795927358">
        <ele>56.2</ele>
        <time>2018-07-25T09:39:48Z</time>
      </trkpt>
      <trkpt lat="63.853619384979" lon="20.302765417242">
        <ele>55.6</ele>
        <time>2018-07-25T09:39:54Z</time>
      </trkpt>
      <trkpt lat="63.85353045302" lon="20.30276223212">
        <ele>55.2</ele>
        <time>2018-07-25T09:39:57Z</time>
      </trkpt>
      <trkpt lat="63.853431462781" lon="20.302724848846">
        <ele>55.6</ele>
        <time>2018-07-25T09:40:03Z</time>
      </trkpt>
      <trkpt lat="63.85331503819" lon="20.302668606297">
        <ele>56</ele>
        <time>2018-07-25T09:40:09Z</time>
      </trkpt>
      <trkpt lat="63.853153351339" lon="20.302637928543">
        <ele>55.2</ele>
        <time>2018-07-25T09:40:15Z</time>
      </trkpt>
      <trkpt lat="63.852986300072" lon="20.302678832215">
        <ele>55.6</ele>
        <time>2018-07-25T09:40:21Z</time>
      </trkpt>
      <trkpt lat="63.852860320115" lon="20.302881087462">
        <ele>55.2</ele>
        <time>2018-07-25T09:40:27Z</time>
      </trkpt>
      <trkpt lat="63.85271573234" lon="20.302978317502">
        <ele>56</ele>
        <time>2018-07-25T09:40:33Z</time>
      </trkpt>
      <trkpt lat="63.852599056292" lon="20.302818558488">
        <ele>55.6</ele>
        <time>2018-07-25T09:40:39Z</time>
      </trkpt>
      <trkpt lat="63.852491181239" lon="20.302560898882">
        <ele>55</ele>
        <time>2018-07-25T09:40:45Z</time>
      </trkpt>
      <trkpt lat="63.852359250133" lon="20.302458891159">
        <ele>55.6</ele>
        <time>2018-07-25T09:40:51Z</time>
      </trkpt>
      <trkpt lat="63.852217512204" lon="20.302401978058">
        <ele>55.4</ele>
        <time>2018-07-25T09:40:57Z</time>
      </trkpt>
      <trkpt lat="63.852080300501" lon="20.302403067705">
        <ele>55</ele>
        <time>2018-07-25T09:41:03Z</time>
      </trkpt>
      <trkpt lat="63.851964378824" lon="20.302404157352">
        <ele>55</ele>
        <time>2018-07-25T09:41:09Z</time>
      </trkpt>
      <trkpt lat="63.851795818815" lon="20.302386387724">
        <ele>55</ele>
        <time>2018-07-25T09:41:15Z</time>
      </trkpt>
      <trkpt lat="63.851623654589" lon="20.302361912576">
        <ele>54.4</ele>
        <time>2018-07-25T09:41:21Z</time>
      </trkpt>
      <trkpt lat="63.851450735992" lon="20.302337018333">
        <ele>54.6</ele>
        <time>2018-07-25T09:41:27Z</time>
      </trkpt>
      <trkpt lat="63.851291312254" lon="20.302452269458">
        <ele>54.6</ele>
        <time>2018-07-25T09:41:33Z</time>
      </trkpt>
      <trkpt lat="63.851242278139" lon="20.302675730912">
        <ele>54.6</ele>
        <time>2018-07-25T09:41:39Z</time>
      </trkpt>
      <trkpt lat="63.851213360584" lon="20.302972031077">
        <ele>54.6</ele>
        <time>2018-07-25T09:41:45Z</time>
      </trkpt>
      <trkpt lat="63.851211432747" lon="20.303096167016">
        <ele>54.4</ele>
        <time>2018-07-25T09:41:47Z</time>
      </trkpt>
      <trkpt lat="63.851176480224" lon="20.303717852539">
        <ele>53.8</ele>
        <time>2018-07-25T09:43:44Z</time>
      </trkpt>
      <trkpt lat="63.851157285673" lon="20.303782896083">
        <ele>53.2</ele>
        <time>2018-07-25T09:43:48Z</time>
      </trkpt>
      <trkpt lat="63.851133397258" lon="20.30394827097">
        <ele>53.4</ele>
        <time>2018-07-25T09:43:54Z</time>
      </trkpt>
      <trkpt lat="63.851100707848" lon="20.304196039934">
        <ele>53.8</ele>
        <time>2018-07-25T09:44:00Z</time>
      </trkpt>
      <trkpt lat="63.851084446962" lon="20.304264520057">
        <ele>54</ele>
        <time>2018-07-25T09:44:02Z</time>
      </trkpt>
      <trkpt lat="63.85101672121" lon="20.304486556588">
        <ele>53.2</ele>
        <time>2018-07-25T09:44:08Z</time>
      </trkpt>
      <trkpt lat="63.850985205266" lon="20.304825604443">
        <ele>53.6</ele>
        <time>2018-07-25T09:44:14Z</time>
      </trkpt>
      <trkpt lat="63.850976236633" lon="20.305202957581">
        <ele>53.6</ele>
        <time>2018-07-25T09:44:20Z</time>
      </trkpt>
      <trkpt lat="63.85096307705" lon="20.305567989326">
        <ele>53.6</ele>
        <time>2018-07-25T09:44:26Z</time>
      </trkpt>
      <trkpt lat="63.850936590246" lon="20.305903265326">
        <ele>53.2</ele>
        <time>2018-07-25T09:44:32Z</time>
      </trkpt>
      <trkpt lat="63.850920832274" lon="20.306207612115">
        <ele>53</ele>
        <time>2018-07-25T09:44:38Z</time>
      </trkpt>
      <trkpt lat="63.850907002139" lon="20.306517490958">
        <ele>52.8</ele>
        <time>2018-07-25T09:44:44Z</time>
      </trkpt>
      <trkpt lat="63.850904068474" lon="20.306638777051">
        <ele>52.6</ele>
        <time>2018-07-25T09:44:46Z</time>
      </trkpt>
      <trkpt lat="63.850893423461" lon="20.307011436325">
        <ele>52.6</ele>
        <time>2018-07-25T09:44:52Z</time>
      </trkpt>
      <trkpt lat="63.850887807588" lon="20.307383760323">
        <ele>52.8</ele>
        <time>2018-07-25T09:44:58Z</time>
      </trkpt>
      <trkpt lat="63.85088093443" lon="20.307755162312">
        <ele>52.8</ele>
        <time>2018-07-25T09:45:04Z</time>
      </trkpt>
      <trkpt lat="63.850861739879" lon="20.308478185006">
        <ele>52.4</ele>
        <time>2018-07-25T09:45:16Z</time>
      </trkpt>
      <trkpt lat="63.850843299699" lon="20.308879091283">
        <ele>52.4</ele>
        <time>2018-07-25T09:45:22Z</time>
      </trkpt>
      <trkpt lat="63.850827374089" lon="20.309244542123">
        <ele>52.2</ele>
        <time>2018-07-25T09:45:28Z</time>
      </trkpt>
      <trkpt lat="63.850802647484" lon="20.309597420113">
        <ele>52.2</ele>
        <time>2018-07-25T09:45:34Z</time>
      </trkpt>
      <trkpt lat="63.850789152625" lon="20.309947783533">
        <ele>52.2</ele>
        <time>2018-07-25T09:45:40Z</time>
      </trkpt>
      <trkpt lat="63.850764509839" lon="20.310323627929">
        <ele>52.2</ele>
        <time>2018-07-25T09:45:46Z</time>
      </trkpt>
      <trkpt lat="63.850745231469" lon="20.310670051856">
        <ele>52.4</ele>
        <time>2018-07-25T09:45:52Z</time>
      </trkpt>
      <trkpt lat="63.850730395506" lon="20.310996694499">
        <ele>53</ele>
        <time>2018-07-25T09:45:58Z</time>
      </trkpt>
      <trkpt lat="63.850709608394" lon="20.311329958843">
        <ele>53</ele>
        <time>2018-07-25T09:46:04Z</time>
      </trkpt>
      <trkpt lat="63.850694772431" lon="20.31169314657">
        <ele>52.8</ele>
        <time>2018-07-25T09:46:10Z</time>
      </trkpt>
      <trkpt lat="63.850681864305" lon="20.312006881087">
        <ele>53</ele>
        <time>2018-07-25T09:46:16Z</time>
      </trkpt>
      <trkpt lat="63.850663340306" lon="20.312343414372">
        <ele>53.2</ele>
        <time>2018-07-25T09:46:22Z</time>
      </trkpt>
      <trkpt lat="63.850661412469" lon="20.312574168079">
        <ele>53.8</ele>
        <time>2018-07-25T09:46:26Z</time>
      </trkpt>
      <trkpt lat="63.85065462313" lon="20.312918161255">
        <ele>53.6</ele>
        <time>2018-07-25T09:46:32Z</time>
      </trkpt>
      <trkpt lat="63.850641798823" lon="20.313273302358">
        <ele>53.4</ele>
        <time>2018-07-25T09:46:38Z</time>
      </trkpt>
      <trkpt lat="63.850609444689" lon="20.31359499968">
        <ele>53.4</ele>
        <time>2018-07-25T09:46:44Z</time>
      </trkpt>
      <trkpt lat="63.850600895151" lon="20.313958187407">
        <ele>53.8</ele>
        <time>2018-07-25T09:46:50Z</time>
      </trkpt>
      <trkpt lat="63.850584382808" lon="20.314309808112">
        <ele>54</ele>
        <time>2018-07-25T09:46:56Z</time>
      </trkpt>
      <trkpt lat="63.850572648148" lon="20.314605353906">
        <ele>54.2</ele>
        <time>2018-07-25T09:47:02Z</time>
      </trkpt>
      <trkpt lat="63.850712122964" lon="20.314682718843">
        <ele>54.2</ele>
        <time>2018-07-25T09:47:08Z</time>
      </trkpt>
      <trkpt lat="63.850860482594" lon="20.314766537843">
        <ele>54</ele>
        <time>2018-07-25T09:47:14Z</time>
      </trkpt>
      <trkpt lat="63.851007249663" lon="20.314821187831">
        <ele>54.4</ele>
        <time>2018-07-25T09:47:20Z</time>
      </trkpt>
      <trkpt lat="63.85117010998" lon="20.314854128698">
        <ele>54</ele>
        <time>2018-07-25T09:47:26Z</time>
      </trkpt>
      <trkpt lat="63.851327270605" lon="20.314879442036">
        <ele>54</ele>
        <time>2018-07-25T09:47:32Z</time>
      </trkpt>
      <trkpt lat="63.851491807302" lon="20.314907353763">
        <ele>54.4</ele>
        <time>2018-07-25T09:47:38Z</time>
      </trkpt>
      <trkpt lat="63.851646118081" lon="20.314930068712">
        <ele>54.2</ele>
        <time>2018-07-25T09:47:44Z</time>
      </trkpt>
      <trkpt lat="63.85179204696" lon="20.314941384277">
        <ele>54.2</ele>
        <time>2018-07-25T09:47:50Z</time>
      </trkpt>
      <trkpt lat="63.851925402989" lon="20.314929565798">
        <ele>54.2</ele>
        <time>2018-07-25T09:47:56Z</time>
      </trkpt>
      <trkpt lat="63.852053729878" lon="20.314790929172">
        <ele>54.2</ele>
        <time>2018-07-25T09:48:02Z</time>
      </trkpt>
      <trkpt lat="63.852201418956" lon="20.314758994133">
        <ele>53.8</ele>
        <time>2018-07-25T09:48:08Z</time>
      </trkpt>
      <trkpt lat="63.852321866859" lon="20.314799646348">
        <ele>54.2</ele>
        <time>2018-07-25T09:48:13Z</time>
      </trkpt>
      <trkpt lat="63.852365201282" lon="20.315164594274">
        <ele>54</ele>
        <time>2018-07-25T09:48:19Z</time>
      </trkpt>
      <trkpt lat="63.852353718079" lon="20.315533984607">
        <ele>54.8</ele>
        <time>2018-07-25T09:48:25Z</time>
      </trkpt>
      <trkpt lat="63.852329242931" lon="20.315876385222">
        <ele>54.6</ele>
        <time>2018-07-25T09:48:31Z</time>
      </trkpt>
      <trkpt lat="63.852282220472" lon="20.316207386453">
        <ele>54.2</ele>
        <time>2018-07-25T09:48:37Z</time>
      </trkpt>
      <trkpt lat="63.852286159965" lon="20.316461944756">
        <ele>53.8</ele>
        <time>2018-07-25T09:48:41Z</time>
      </trkpt>
      <trkpt lat="63.852286243784" lon="20.316747935184">
        <ele>54</ele>
        <time>2018-07-25T09:48:47Z</time>
      </trkpt>
      <trkpt lat="63.852278113341" lon="20.317049264489">
        <ele>54.6</ele>
        <time>2018-07-25T09:48:53Z</time>
      </trkpt>
      <trkpt lat="63.852270988726" lon="20.317382025919">
        <ele>54.4</ele>
        <time>2018-07-25T09:48:59Z</time>
      </trkpt>
      <trkpt lat="63.852273587115" lon="20.317705148164">
        <ele>54.4</ele>
        <time>2018-07-25T09:49:05Z</time>
      </trkpt>
      <trkpt lat="63.852291859657" lon="20.318063474389">
        <ele>54.6</ele>
        <time>2018-07-25T09:49:11Z</time>
      </trkpt>
      <trkpt lat="63.852288758354" lon="20.318124997535">
        <ele>54.8</ele>
        <time>2018-07-25T09:49:12Z</time>
      </trkpt>
      <trkpt lat="63.852255733668" lon="20.318460022078">
        <ele>55</ele>
        <time>2018-07-25T09:49:18Z</time>
      </trkpt>
      <trkpt lat="63.852242825542" lon="20.318774427147">
        <ele>54.4</ele>
        <time>2018-07-25T09:49:24Z</time>
      </trkpt>
      <trkpt lat="63.852240059515" lon="20.319053879693">
        <ele>54.4</ele>
        <time>2018-07-25T09:49:30Z</time>
      </trkpt>
      <trkpt lat="63.852270234355" lon="20.319305671969">
        <ele>53.6</ele>
        <time>2018-07-25T09:49:35Z</time>
      </trkpt>
      <trkpt lat="63.852279119169" lon="20.319709428092">
        <ele>53.2</ele>
        <time>2018-07-25T09:49:41Z</time>
      </trkpt>
      <trkpt lat="63.85231423933" lon="20.320151824774">
        <ele>53.2</ele>
        <time>2018-07-25T09:49:47Z</time>
      </trkpt>
      <trkpt lat="63.85232597399" lon="20.32054946211">
        <ele>53</ele>
        <time>2018-07-25T09:49:53Z</time>
      </trkpt>
      <trkpt lat="63.852322118316" lon="20.320927150524">
        <ele>53</ele>
        <time>2018-07-25T09:49:59Z</time>
      </trkpt>
      <trkpt lat="63.852302420851" lon="20.321291846993">
        <ele>52.6</ele>
        <time>2018-07-25T09:50:05Z</time>
      </trkpt>
      <trkpt lat="63.852297643168" lon="20.321355381795">
        <ele>52.6</ele>
        <time>2018-07-25T09:50:06Z</time>
      </trkpt>
      <trkpt lat="63.852268893251" lon="20.321741116833">
        <ele>52.6</ele>
        <time>2018-07-25T09:50:12Z</time>
      </trkpt>
      <trkpt lat="63.852237461126" lon="20.322089887692">
        <ele>53</ele>
        <time>2018-07-25T09:50:18Z</time>
      </trkpt>
      <trkpt lat="63.852192617961" lon="20.322402616381">
        <ele>53.6</ele>
        <time>2018-07-25T09:50:24Z</time>
      </trkpt>
      <trkpt lat="63.852146433692" lon="20.322716853812">
        <ele>54.4</ele>
        <time>2018-07-25T09:50:30Z</time>
      </trkpt>
      <trkpt lat="63.852141656009" lon="20.322771000886">
        <ele>54.6</ele>
        <time>2018-07-25T09:50:31Z</time>
      </trkpt>
      <trkpt lat="63.852093543903" lon="20.323060092617">
        <ele>55.4</ele>
        <time>2018-07-25T09:50:37Z</time>
      </trkpt>
      <trkpt lat="63.852060183941" lon="20.323192442818">
        <ele>55.6</ele>
        <time>2018-07-25T09:50:40Z</time>
      </trkpt>
      <trkpt lat="63.852008719075" lon="20.323473823201">
        <ele>56.8</ele>
        <time>2018-07-25T09:50:46Z</time>
      </trkpt>
      <trkpt lat="63.851995978587" lon="20.323739864707">
        <ele>57.4</ele>
        <time>2018-07-25T09:50:52Z</time>
      </trkpt>
      <trkpt lat="63.851987764325" lon="20.32394832256">
        <ele>57.8</ele>
        <time>2018-07-25T09:50:56Z</time>
      </trkpt>
      <trkpt lat="63.852014921681" lon="20.324249065132">
        <ele>58.6</ele>
        <time>2018-07-25T09:51:02Z</time>
      </trkpt>
      <trkpt lat="63.852026069608" lon="20.324402537721">
        <ele>59</ele>
        <time>2018-07-25T09:51:05Z</time>
      </trkpt>
      <trkpt lat="63.852008970532" lon="20.324697832058">
        <ele>59.4</ele>
        <time>2018-07-25T09:51:11Z</time>
      </trkpt>
      <trkpt lat="63.851988518696" lon="20.325011734213">
        <ele>59.6</ele>
        <time>2018-07-25T09:51:17Z</time>
      </trkpt>
      <trkpt lat="63.851963372996" lon="20.325212815994">
        <ele>60</ele>
        <time>2018-07-25T09:51:21Z</time>
      </trkpt>
      <trkpt lat="63.851920038573" lon="20.325622942361">
        <ele>59.8</ele>
        <time>2018-07-25T09:51:27Z</time>
      </trkpt>
      <trkpt lat="63.851893970864" lon="20.325960062379">
        <ele>59.8</ele>
        <time>2018-07-25T09:51:33Z</time>
      </trkpt>
      <trkpt lat="63.851892126846" lon="20.326278826036">
        <ele>59.6</ele>
        <time>2018-07-25T09:51:39Z</time>
      </trkpt>
      <trkpt lat="63.851867232603" lon="20.326605468679">
        <ele>59.8</ele>
        <time>2018-07-25T09:51:45Z</time>
      </trkpt>
      <trkpt lat="63.851885672783" lon="20.326952563158">
        <ele>59.4</ele>
        <time>2018-07-25T09:51:51Z</time>
      </trkpt>
      <trkpt lat="63.851967731584" lon="20.327298651809">
        <ele>60.2</ele>
        <time>2018-07-25T09:51:57Z</time>
      </trkpt>
      <trkpt lat="63.851996900596" lon="20.327594951974">
        <ele>60</ele>
        <time>2018-07-25T09:52:03Z</time>
      </trkpt>
      <trkpt lat="63.852001510641" lon="20.327925282653">
        <ele>60.2</ele>
        <time>2018-07-25T09:52:09Z</time>
      </trkpt>
      <trkpt lat="63.852014670224" lon="20.328280675213">
        <ele>60.4</ele>
        <time>2018-07-25T09:52:15Z</time>
      </trkpt>
      <trkpt lat="63.85206445871" lon="20.328454180543">
        <ele>60.4</ele>
        <time>2018-07-25T09:52:19Z</time>
      </trkpt>
      <trkpt lat="63.852178704007" lon="20.328516793336">
        <ele>60</ele>
        <time>2018-07-25T09:52:25Z</time>
      </trkpt>
      <trkpt lat="63.852329159112" lon="20.328543363959">
        <ele>60</ele>
        <time>2018-07-25T09:52:31Z</time>
      </trkpt>
      <trkpt lat="63.852490426868" lon="20.328575382817">
        <ele>59.4</ele>
        <time>2018-07-25T09:52:37Z</time>
      </trkpt>
      <trkpt lat="63.852651107891" lon="20.328616537946">
        <ele>59.6</ele>
        <time>2018-07-25T09:52:43Z</time>
      </trkpt>
      <trkpt lat="63.852789912155" lon="20.328662219301">
        <ele>59.4</ele>
        <time>2018-07-25T09:52:49Z</time>
      </trkpt>
      <trkpt lat="63.852952437196" lon="20.32865978855">
        <ele>59.4</ele>
        <time>2018-07-25T09:52:55Z</time>
      </trkpt>
      <trkpt lat="63.853107586165" lon="20.328686778268">
        <ele>59.4</ele>
        <time>2018-07-25T09:53:01Z</time>
      </trkpt>
      <trkpt lat="63.853249240275" lon="20.328717036927">
        <ele>59.4</ele>
        <time>2018-07-25T09:53:07Z</time>
      </trkpt>
      <trkpt lat="63.853426349822" lon="20.328731286157">
        <ele>59.4</ele>
        <time>2018-07-25T09:53:13Z</time>
      </trkpt>
      <trkpt lat="63.853586108836" lon="20.328776045503">
        <ele>59.8</ele>
        <time>2018-07-25T09:53:19Z</time>
      </trkpt>
      <trkpt lat="63.853738994692" lon="20.32881066275">
        <ele>58.8</ele>
        <time>2018-07-25T09:53:25Z</time>
      </trkpt>
      <trkpt lat="63.853878804784" lon="20.328834467346">
        <ele>59</ele>
        <time>2018-07-25T09:53:31Z</time>
      </trkpt>
      <trkpt lat="63.854048705897" lon="20.328889871705">
        <ele>58.2</ele>
        <time>2018-07-25T09:53:37Z</time>
      </trkpt>
      <trkpt lat="63.854195724423" lon="20.328938486725">
        <ele>58.2</ele>
        <time>2018-07-25T09:53:43Z</time>
      </trkpt>
      <trkpt lat="63.854277615586" lon="20.328967823375">
        <ele>57.8</ele>
        <time>2018-07-25T09:53:46Z</time>
      </trkpt>
      <trkpt lat="63.854427483958" lon="20.328993723446">
        <ele>58</ele>
        <time>2018-07-25T09:53:52Z</time>
      </trkpt>
      <trkpt lat="63.854581208004" lon="20.329032364005">
        <ele>58</ele>
        <time>2018-07-25T09:53:58Z</time>
      </trkpt>
      <trkpt lat="63.854735686421" lon="20.329083409776">
        <ele>57.4</ele>
        <time>2018-07-25T09:54:04Z</time>
      </trkpt>
      <trkpt lat="63.854904162611" lon="20.329132611529">
        <ele>57.4</ele>
        <time>2018-07-25T09:54:10Z</time>
      </trkpt>
      <trkpt lat="63.85506014977" lon="20.329182400015">
        <ele>57.4</ele>
        <time>2018-07-25T09:54:16Z</time>
      </trkpt>
      <trkpt lat="63.855200043681" lon="20.329204025317">
        <ele>57.2</ele>
        <time>2018-07-25T09:54:22Z</time>
      </trkpt>
      <trkpt lat="63.855360724704" lon="20.329241073315">
        <ele>57.4</ele>
        <time>2018-07-25T09:54:28Z</time>
      </trkpt>
      <trkpt lat="63.855516544225" lon="20.32926412354">
        <ele>57.2</ele>
        <time>2018-07-25T09:54:34Z</time>
      </trkpt>
      <trkpt lat="63.855674207764" lon="20.329298237873">
        <ele>57.2</ele>
        <time>2018-07-25T09:54:40Z</time>
      </trkpt>
      <trkpt lat="63.85583296095" lon="20.329311648913">
        <ele>57.2</ele>
        <time>2018-07-25T09:54:46Z</time>
      </trkpt>
      <trkpt lat="63.855979225105" lon="20.329302009728">
        <ele>56.6</ele>
        <time>2018-07-25T09:54:52Z</time>
      </trkpt>
      <trkpt lat="63.856147617476" lon="20.329306619773">
        <ele>56.6</ele>
        <time>2018-07-25T09:54:58Z</time>
      </trkpt>
      <trkpt lat="63.856302514988" lon="20.329492446496">
        <ele>56</ele>
        <time>2018-07-25T09:55:04Z</time>
      </trkpt>
      <trkpt lat="63.856434949008" lon="20.329401083786">
        <ele>55.6</ele>
        <time>2018-07-25T09:55:10Z</time>
      </trkpt>
      <trkpt lat="63.856498148534" lon="20.329287844317">
        <ele>55.6</ele>
        <time>2018-07-25T09:55:14Z</time>
      </trkpt>
      <trkpt lat="63.856505776063" lon="20.329120709231">
        <ele>55.4</ele>
        <time>2018-07-25T09:55:18Z</time>
      </trkpt>
      <trkpt lat="63.856394045336" lon="20.32899590274">
        <ele>55.4</ele>
        <time>2018-07-25T09:55:24Z</time>
      </trkpt>
      <trkpt lat="63.856244344602" lon="20.329028256874">
        <ele>55.8</ele>
        <time>2018-07-25T09:55:30Z</time>
      </trkpt>
      <trkpt lat="63.856088525081" lon="20.329000848061">
        <ele>56</ele>
        <time>2018-07-25T09:55:36Z</time>
      </trkpt>
      <trkpt lat="63.85596036583" lon="20.329007972676">
        <ele>56.4</ele>
        <time>2018-07-25T09:55:42Z</time>
      </trkpt>
      <trkpt lat="63.855890628422" lon="20.329036303498">
        <ele>56.6</ele>
        <time>2018-07-25T09:55:45Z</time>
      </trkpt>
      <trkpt lat="63.85574076005" lon="20.32901937206">
        <ele>56.6</ele>
        <time>2018-07-25T09:55:51Z</time>
      </trkpt>
      <trkpt lat="63.855604889451" lon="20.328973774524">
        <ele>56.6</ele>
        <time>2018-07-25T09:55:57Z</time>
      </trkpt>
      <trkpt lat="63.855445298075" lon="20.328946868625">
        <ele>56.8</ele>
        <time>2018-07-25T09:56:03Z</time>
      </trkpt>
      <trkpt lat="63.855287969812" lon="20.328943515865">
        <ele>56.8</ele>
        <time>2018-07-25T09:56:09Z</time>
      </trkpt>
      <trkpt lat="63.855146902435" lon="20.328907725152">
        <ele>56.8</ele>
        <time>2018-07-25T09:56:15Z</time>
      </trkpt>
      <trkpt lat="63.855083786728" lon="20.328859529227">
        <ele>56.4</ele>
        <time>2018-07-25T09:56:18Z</time>
      </trkpt>
      <trkpt lat="63.855059814494" lon="20.32877126782">
        <ele>56.6</ele>
        <time>2018-07-25T09:56:20Z</time>
      </trkpt>
      <trkpt lat="63.855067022928" lon="20.328406403713">
        <ele>57</ele>
        <time>2018-07-25T09:56:26Z</time>
      </trkpt>
      <trkpt lat="63.855080853063" lon="20.328068696962">
        <ele>57.2</ele>
        <time>2018-07-25T09:56:32Z</time>
      </trkpt>
      <trkpt lat="63.855082026529" lon="20.327755632997">
        <ele>57.8</ele>
        <time>2018-07-25T09:56:37Z</time>
      </trkpt>
      <trkpt lat="63.855095018474" lon="20.327407951785">
        <ele>57.8</ele>
        <time>2018-07-25T09:56:43Z</time>
      </trkpt>
      <trkpt lat="63.855075069552" lon="20.327091618879">
        <ele>57.8</ele>
        <time>2018-07-25T09:56:49Z</time>
      </trkpt>
      <trkpt lat="63.855002649936" lon="20.326791965954">
        <ele>57.4</ele>
        <time>2018-07-25T09:56:55Z</time>
      </trkpt>
      <trkpt lat="63.854863426577" lon="20.326514525064">
        <ele>58.2</ele>
        <time>2018-07-25T09:57:03Z</time>
      </trkpt>
    </trkseg>
  </trk>
</gpx>